Observation data for Wall on 01/17/2021      Previous  Date  Next       Current Mesonet Observations  Soil Data  Daily Summary Page  Observations in Plain Language
KWA1 170600Z 06006KT 03/M05 A3009 RMK A01 T00331047  RH  056%=      5-min Rain = 0
KWA1 170601Z 06006KT 03/M05 A3009 RMK A01 T00321048  RH  056%=      5-min Rain = 0
KWA1 170602Z 06006KT 03/M05 A3009 RMK A01 T00311048  RH  056%=      5-min Rain = 0
KWA1 170603Z 06006KT 03/M05 A3009 RMK A01 T00301049  RH  056%=      5-min Rain = 0
KWA1 170604Z 06006KT 03/M05 A3009 RMK A01 T00301048  RH  056%=      5-min Rain = 0
KWA1 170605Z 06006KT 03/M05 A3009 RMK A01 T00301048  RH  056%=      5-min Rain = 0
KWA1 170606Z 06006KT 03/M05 A3009 RMK A01 T00301048  RH  056%=      5-min Rain = 0
KWA1 170607Z 05006KT 03/M05 A3009 RMK A01 T00311048  RH  056%=      5-min Rain = 0
KWA1 170608Z 05006KT 03/M05 A3009 RMK A01 T00311049  RH  056%=      5-min Rain = 0
KWA1 170609Z 05006KT 03/M05 A3009 RMK A01 T00311049  RH  056%=      5-min Rain = 0
KWA1 170610Z 05006KT 03/M05 A3009 RMK A01 T00311049  RH  056%=      5-min Rain = 0
KWA1 170611Z 05006KT 03/M05 A3009 RMK A01 T00311048  RH  056%=      5-min Rain = 0
KWA1 170612Z 06006KT 03/M05 A3009 RMK A01 T00311048  RH  056%=      5-min Rain = 0
KWA1 170613Z 06006KT 03/M05 A3009 RMK A01 T00311049  RH  056%=      5-min Rain = 0
KWA1 170614Z 06006KT 03/M05 A3009 RMK A01 T00311049  RH  056%=      5-min Rain = 0
KWA1 170615Z 06006KT 03/M05 A3009 RMK A01 T00311049  RH  056%=      5-min Rain = 0
KWA1 170616Z 07005KT 03/M05 A3009 RMK A01 T00311049  RH  056%=      5-min Rain = 0
KWA1 170617Z 07005KT 03/M05 A3009 RMK A01 T00321048  RH  056%=      5-min Rain = 0
KWA1 170618Z 07006KT 03/M05 A3009 RMK A01 T00321048  RH  056%=      5-min Rain = 0
KWA1 170619Z 07006KT 03/M05 A3009 RMK A01 T00331048  RH  056%=      5-min Rain = 0
KWA1 170620Z 07005KT 03/M05 A3009 RMK A01 T00321048  RH  055%=      5-min Rain = 0
KWA1 170621Z 07005KT 03/M05 A3009 RMK A01 T00311049  RH  056%=      5-min Rain = 0
KWA1 170622Z 07005KT 03/M05 A3009 RMK A01 T00311049  RH  056%=      5-min Rain = 0
KWA1 170623Z 07005KT 03/M05 A3009 RMK A01 T00321048  RH  056%=      5-min Rain = 0
KWA1 170624Z 07005KT 03/M05 A3009 RMK A01 T00341047  RH  055%=      5-min Rain = 0
KWA1 170625Z 07005KT 04/M05 A3009 RMK A01 T00361046  RH  055%=      5-min Rain = 0
KWA1 170626Z 07005KT 04/M05 A3009 RMK A01 T00391046  RH  054%=      5-min Rain = 0
KWA1 170627Z 07005KT 04/M05 A3009 RMK A01 T00401047  RH  053%=      5-min Rain = 0
KWA1 170628Z 07005KT 04/M05 A3009 RMK A01 T00411047  RH  053%=      5-min Rain = 0
KWA1 170629Z 08005KT 04/M05 A3009 RMK A01 T00401047  RH  053%=      5-min Rain = 0
KWA1 170630Z 08004KT 04/M05 A3009 RMK A01 T00391049  RH  053%=      5-min Rain = 0
KWA1 170631Z 08004KT 04/M05 A3009 RMK A01 T00381050  RH  053%=      5-min Rain = 0
KWA1 170632Z 08004KT 04/M05 A3009 RMK A01 T00371049  RH  053%=      5-min Rain = 0
KWA1 170633Z 08003KT 04/M05 A3009 RMK A01 T00371048  RH  054%=      5-min Rain = 0
KWA1 170634Z 08003KT 04/M05 A3009 RMK A01 T00371049  RH  053%=      5-min Rain = 0
KWA1 170635Z 08003KT 04/M05 A3009 RMK A01 T00371049  RH  053%=      5-min Rain = 0
KWA1 170636Z 07003KT 04/M05 A3009 RMK A01 T00371050  RH  053%=      5-min Rain = 0
KWA1 170637Z 07003KT 04/M05 A3009 RMK A01 T00371051  RH  053%=      5-min Rain = 0
KWA1 170638Z 07003KT 04/M05 A3009 RMK A01 T00361051  RH  053%=      5-min Rain = 0
KWA1 170639Z 07004KT 04/M05 A3009 RMK A01 T00351050  RH  054%=      5-min Rain = 0
KWA1 170640Z 07004KT 04/M05 A3009 RMK A01 T00371049  RH  053%=      5-min Rain = 0
KWA1 170641Z 08004KT 04/M05 A3009 RMK A01 T00381049  RH  053%=      5-min Rain = 0
KWA1 170642Z 08004KT 04/M05 A3009 RMK A01 T00381049  RH  053%=      5-min Rain = 0
KWA1 170643Z 08004KT 04/M05 A3009 RMK A01 T00381049  RH  053%=      5-min Rain = 0
KWA1 170644Z 08004KT 04/M05 A3009 RMK A01 T00371050  RH  053%=      5-min Rain = 0
KWA1 170645Z 08004KT 04/M05 A3009 RMK A01 T00361051  RH  053%=      5-min Rain = 0
KWA1 170646Z 08004KT 04/M05 A3009 RMK A01 T00351052  RH  053%=      5-min Rain = 0
KWA1 170647Z 08004KT 04/M05 A3009 RMK A01 T00351052  RH  053%=      5-min Rain = 0
KWA1 170648Z 08004KT 03/M05 A3009 RMK A01 T00341052  RH  053%=      5-min Rain = 0
KWA1 170649Z 08003KT 03/M05 A3009 RMK A01 T00331053  RH  053%=      5-min Rain = 0
KWA1 170650Z 08003KT 03/M05 A3009 RMK A01 T00301054  RH  054%=      5-min Rain = 0
KWA1 170651Z 08004KT 03/M05 A3009 RMK A01 T00281053  RH  055%=      5-min Rain = 0
KWA1 170652Z 08003KT 03/M05 A3009 RMK A01 T00281053  RH  055%=      5-min Rain = 0
KWA1 170653Z 08003KT 03/M05 A3009 RMK A01 T00271054  RH  055%=      5-min Rain = 0
KWA1 170654Z 08003KT 03/M05 A3009 RMK A01 T00261054  RH  055%=      5-min Rain = 0
KWA1 170655Z 09003KT 02/M06 A3009 RMK A01 T00241056  RH  056%=      5-min Rain = 0
KWA1 170656Z 09003KT 02/M06 A3009 RMK A01 T00221055  RH  056%=      5-min Rain = 0
KWA1 170657Z 09003KT 02/M06 A3009 RMK A01 T00211055  RH  057%=      5-min Rain = 0
KWA1 170658Z 09002KT 02/M06 A3009 RMK A01 T00191056  RH  057%=      5-min Rain = 0
KWA1 170659Z 09002KT 02/M06 A3009 RMK A01 T00171057  RH  058%=      5-min Rain = 0
KWA1 170700Z 09001KT 01/M06 A3009 RMK A01 T00141057  RH  059%=      5-min Rain = 0
KWA1 170701Z 09001KT 01/M06 A3009 RMK A01 T00131056  RH  060%=      5-min Rain = 0
KWA1 170702Z 09001KT 01/M06 A3009 RMK A01 T00131056  RH  060%=      5-min Rain = 0
KWA1 170703Z 09001KT 01/M06 A3009 RMK A01 T00141056  RH  060%=      5-min Rain = 0
KWA1 170704Z 10002KT 01/M06 A3009 RMK A01 T00131057  RH  060%=      5-min Rain = 0
KWA1 170705Z 11002KT 01/M06 A3009 RMK A01 T00111057  RH  060%=      5-min Rain = 0
KWA1 170706Z 11002KT 01/M06 A3009 RMK A01 T00101057  RH  061%=      5-min Rain = 0
KWA1 170707Z 12002KT 01/M06 A3009 RMK A01 T00091057  RH  061%=      5-min Rain = 0
KWA1 170708Z 13002KT 01/M06 A3009 RMK A01 T00061058  RH  062%=      5-min Rain = 0
KWA1 170709Z 15002KT 00/M06 A3009 RMK A01 T00041060  RH  062%=      5-min Rain = 0
KWA1 170710Z 14002KT 00/M06 A3009 RMK A01 T00011060  RH  063%=      5-min Rain = 0
KWA1 170711Z 14002KT M00/M06 A3009 RMK A01 T10021060  RH  065%=      5-min Rain = 0
KWA1 170712Z 14003KT M00/M06 A3009 RMK A01 T10031059  RH  066%=      5-min Rain = 0
KWA1 170713Z 15004KT M00/M06 A3009 RMK A01 T10031058  RH  067%=      5-min Rain = 0
KWA1 170714Z 15004KT M00/M06 A3009 RMK A01 T10031056  RH  067%=      5-min Rain = 0
KWA1 170715Z 15004KT M00/M06 A3009 RMK A01 T10021055  RH  068%=      5-min Rain = 0
KWA1 170716Z 14004KT M00/M05 A3009 RMK A01 T10021054  RH  068%=      5-min Rain = 0
KWA1 170717Z 15004KT M00/M05 A3009 RMK A01 T10011053  RH  068%=      5-min Rain = 0
KWA1 170718Z 15004KT 00/05 A3009 RMK A01 T00000-53  RH  068%=      5-min Rain = 0
KWA1 170719Z 15003KT 00/M05 A3009 RMK A01 T00011053  RH  067%=      5-min Rain = 0
KWA1 170720Z 15004KT 00/M05 A3009 RMK A01 T00011053  RH  067%=      5-min Rain = 0
KWA1 170721Z 16004KT 00/M05 A3009 RMK A01 T00011053  RH  067%=      5-min Rain = 0
KWA1 170722Z 16005KT 00/05 A3009 RMK A01 T00000-54  RH  067%=      5-min Rain = 0
KWA1 170723Z 15005KT 00/05 A3009 RMK A01 T00-00-54  RH  067%=      5-min Rain = 0
KWA1 170724Z 15005KT 00/05 A3009 RMK A01 T00000-54  RH  067%=      5-min Rain = 0
KWA1 170725Z 16005KT 00/M06 A3009 RMK A01 T00011055  RH  066%=      5-min Rain = 0
KWA1 170726Z 16005KT 00/M06 A3009 RMK A01 T00021055  RH  066%=      5-min Rain = 0
KWA1 170727Z 16004KT 00/M06 A3009 RMK A01 T00011056  RH  065%=      5-min Rain = 0
KWA1 170728Z 16005KT 00/M06 A3009 RMK A01 T00021056  RH  065%=      5-min Rain = 0
KWA1 170729Z 16005KT 00/M06 A3009 RMK A01 T00011055  RH  066%=      5-min Rain = 0
KWA1 170730Z 16005KT 00/M06 A3009 RMK A01 T00011055  RH  066%=      5-min Rain = 0
KWA1 170731Z 16005KT 00/M06 A3009 RMK A01 T00021055  RH  066%=      5-min Rain = 0
KWA1 170732Z 16005KT 00/M06 A3009 RMK A01 T00021056  RH  065%=      5-min Rain = 0
KWA1 170733Z 15005KT 00/M06 A3009 RMK A01 T00021056  RH  065%=      5-min Rain = 0
KWA1 170734Z 15004KT 00/M06 A3009 RMK A01 T00021056  RH  065%=      5-min Rain = 0
KWA1 170735Z 15004KT 00/M06 A3009 RMK A01 T00021056  RH  065%=      5-min Rain = 0
KWA1 170736Z 15005KT 00/M06 A3009 RMK A01 T00021057  RH  065%=      5-min Rain = 0
KWA1 170737Z 16005KT 00/M06 A3009 RMK A01 T00011058  RH  065%=      5-min Rain = 0
KWA1 170738Z 16005KT M00/M06 A301 RMK A01 T10011058  RH  065%=      5-min Rain = 0
KWA1 170739Z 17005KT M00/M06 A301 RMK A01 T10011057  RH  066%=      5-min Rain = 0
KWA1 170740Z 17004KT M00/M06 A301 RMK A01 T10011057  RH  066%=      5-min Rain = 0
KWA1 170741Z 16004KT 00/M06 A301 RMK A01 T00011055  RH  066%=      5-min Rain = 0
KWA1 170742Z 16004KT 00/M05 A301 RMK A01 T00031053  RH  066%=      5-min Rain = 0
KWA1 170743Z 16004KT 01/M05 A301 RMK A01 T00051053  RH  065%=      5-min Rain = 0
KWA1 170744Z 17005KT 01/M05 A301 RMK A01 T00051054  RH  065%=      5-min Rain = 0
KWA1 170745Z 17005KT 00/M06 A301 RMK A01 T00041055  RH  064%=      5-min Rain = 0
KWA1 170746Z 17004KT 00/M06 A301 RMK A01 T00041055  RH  064%=      5-min Rain = 0
KWA1 170747Z 17004KT 00/M06 A301 RMK A01 T00031056  RH  064%=      5-min Rain = 0
KWA1 170748Z 16003KT 00/M06 A301 RMK A01 T00031056  RH  065%=      5-min Rain = 0
KWA1 170749Z 16003KT 00/M06 A301 RMK A01 T00021056  RH  065%=      5-min Rain = 0
KWA1 170750Z 15003KT 00/M06 A301 RMK A01 T00021056  RH  065%=      5-min Rain = 0
KWA1 170751Z 16004KT 00/M06 A301 RMK A01 T00011056  RH  065%=      5-min Rain = 0
KWA1 170752Z 16004KT 00/M06 A301 RMK A01 T00011056  RH  065%=      5-min Rain = 0
KWA1 170753Z 17005KT 00/M06 A301 RMK A01 T00011056  RH  065%=      5-min Rain = 0
KWA1 170754Z 17005KT 00/M06 A301 RMK A01 T00011055  RH  066%=      5-min Rain = 0
KWA1 170755Z 18005KT 00/M06 A301 RMK A01 T00011055  RH  066%=      5-min Rain = 0
KWA1 170756Z 17005KT 00/M06 A301 RMK A01 T00011055  RH  066%=      5-min Rain = 0
KWA1 170757Z 17005KT 00/M06 A301 RMK A01 T00011055  RH  066%=      5-min Rain = 0
KWA1 170758Z 18005KT 00/M06 A301 RMK A01 T00011055  RH  066%=      5-min Rain = 0
KWA1 170759Z 18006KT 00/M06 A301 RMK A01 T00011055  RH  066%=      5-min Rain = 0
KWA1 170800Z 18005KT 00/06 A301 RMK A01 T00-00-55  RH  066%=      5-min Rain = 0
KWA1 170801Z 17005KT 00/06 A301 RMK A01 T00-00-55  RH  067%=      5-min Rain = 0
KWA1 170802Z 17004KT 00/06 A301 RMK A01 T00-00-56  RH  066%=      5-min Rain = 0
KWA1 170803Z 18004KT M00/M06 A301 RMK A01 T10011057  RH  066%=      5-min Rain = 0
KWA1 170804Z 18003KT M00/M06 A301 RMK A01 T10021057  RH  067%=      5-min Rain = 0
KWA1 170805Z 19003KT M00/M06 A301 RMK A01 T10041058  RH  067%=      5-min Rain = 0
KWA1 170806Z 19003KT M01/M06 A301 RMK A01 T10051057  RH  068%=      5-min Rain = 0
KWA1 170807Z 19004KT M00/M06 A301 RMK A01 T10031055  RH  068%=      5-min Rain = 0
KWA1 170808Z 19004KT M00/M06 A301 RMK A01 T10021055  RH  068%=      5-min Rain = 0
KWA1 170809Z 19004KT M00/M06 A301 RMK A01 T10021057  RH  067%=      5-min Rain = 0
KWA1 170810Z 19003KT M00/M06 A301 RMK A01 T10041059  RH  066%=      5-min Rain = 0
KWA1 170811Z 19003KT M01/M06 A301 RMK A01 T10051060  RH  066%=      5-min Rain = 0
KWA1 170812Z 19003KT M01/M06 A301 RMK A01 T10051059  RH  067%=      5-min Rain = 0
KWA1 170813Z 19003KT M01/M06 A301 RMK A01 T10051059  RH  067%=      5-min Rain = 0
KWA1 170814Z 19004KT M01/M06 A301 RMK A01 T10061061  RH  066%=      5-min Rain = 0
KWA1 170815Z 19003KT M01/M06 A301 RMK A01 T10071061  RH  067%=      5-min Rain = 0
KWA1 170816Z 20003KT M01/M06 A301 RMK A01 T10071062  RH  066%=      5-min Rain = 0
KWA1 170817Z 21003KT M01/M06 A301 RMK A01 T10091064  RH  066%=      5-min Rain = 0
KWA1 170818Z 22003KT M01/M06 A301 RMK A01 T10101064  RH  067%=      5-min Rain = 0
KWA1 170819Z 23003KT M01/M06 A301 RMK A01 T10111064  RH  068%=      5-min Rain = 0
KWA1 170820Z 24004KT M01/M06 A301 RMK A01 T10131064  RH  068%=      5-min Rain = 0
KWA1 170821Z 24004KT M01/M06 A301 RMK A01 T10141063  RH  069%=      5-min Rain = 0
KWA1 170822Z 24004KT M01/M06 A3011 RMK A01 T10141061  RH  071%=      5-min Rain = 0
KWA1 170823Z 23004KT M01/M06 A3011 RMK A01 T10131059  RH  071%=      5-min Rain = 0
KWA1 170824Z 23004KT M01/M06 A3011 RMK A01 T10121058  RH  071%=      5-min Rain = 0
KWA1 170825Z 23005KT M01/M06 A3011 RMK A01 T10111057  RH  071%=      5-min Rain = 0
KWA1 170826Z 23006KT M01/M06 A3011 RMK A01 T10111056  RH  071%=      5-min Rain = 0
KWA1 170827Z 23006KT M01/M06 A3011 RMK A01 T10101055  RH  072%=      5-min Rain = 0
KWA1 170828Z 24006KT M01/M05 A3011 RMK A01 T10101054  RH  072%=      5-min Rain = 0
KWA1 170829Z 23006KT M01/M05 A3011 RMK A01 T10091054  RH  072%=      5-min Rain = 0
KWA1 170830Z 24006KT M01/M05 A3011 RMK A01 T10091054  RH  071%=      5-min Rain = 0
KWA1 170831Z 24006KT M01/M05 A3011 RMK A01 T10091054  RH  071%=      5-min Rain = 0
KWA1 170832Z 25006KT M01/M06 A3011 RMK A01 T10091055  RH  071%=      5-min Rain = 0
KWA1 170833Z 25006KT M01/M05 A3011 RMK A01 T10091054  RH  071%=      5-min Rain = 0
KWA1 170834Z 25006KT M01/M06 A3011 RMK A01 T10091055  RH  071%=      5-min Rain = 0
KWA1 170835Z 26006KT M01/M06 A3011 RMK A01 T10091055  RH  071%=      5-min Rain = 0
KWA1 170836Z 26006KT M01/M06 A3011 RMK A01 T10101056  RH  071%=      5-min Rain = 0
KWA1 170837Z 27006KT M01/M06 A3011 RMK A01 T10111056  RH  071%=      5-min Rain = 0
KWA1 170838Z 26006KT M01/M06 A3011 RMK A01 T10111056  RH  071%=      5-min Rain = 0
KWA1 170839Z 26006KT M01/M06 A3011 RMK A01 T10111057  RH  071%=      5-min Rain = 0
KWA1 170840Z 27005KT M01/M06 A3011 RMK A01 T10111058  RH  071%=      5-min Rain = 0
KWA1 170841Z 28006KT M01/M06 A3011 RMK A01 T10111058  RH  071%=      5-min Rain = 0
KWA1 170842Z 29005KT M01/M06 A3011 RMK A01 T10111059  RH  070%=      5-min Rain = 0
KWA1 170843Z 29005KT M01/M06 A3011 RMK A01 T10111060  RH  070%=      5-min Rain = 0
KWA1 170844Z 28005KT M01/M06 A3011 RMK A01 T10121060  RH  070%=      5-min Rain = 0
KWA1 170845Z 29005KT M01/M06 A3011 RMK A01 T10131061  RH  070%=      5-min Rain = 0
KWA1 170846Z 29006KT M01/M06 A3011 RMK A01 T10141063  RH  069%=      5-min Rain = 0
KWA1 170847Z 29006KT M02/M06 A3011 RMK A01 T10151063  RH  070%=      5-min Rain = 0
KWA1 170848Z 29006KT M02/M06 A3011 RMK A01 T10151062  RH  070%=      5-min Rain = 0
KWA1 170849Z 29006KT M02/M06 A3011 RMK A01 T10151061  RH  071%=      5-min Rain = 0
KWA1 170850Z 30007KT M02/M06 A3012 RMK A01 T10151061  RH  071%=      5-min Rain = 0
KWA1 170851Z 30007KT M02/M06 A3012 RMK A01 T10151061  RH  071%=      5-min Rain = 0
KWA1 170852Z 30007KT M02/M06 A3012 RMK A01 T10151060  RH  071%=      5-min Rain = 0
KWA1 170853Z 30007KT M02/M06 A3012 RMK A01 T10151060  RH  071%=      5-min Rain = 0
KWA1 170854Z 30007KT M01/M06 A3012 RMK A01 T10141060  RH  071%=      5-min Rain = 0
KWA1 170855Z 30007KT M01/M06 A3012 RMK A01 T10141060  RH  071%=      5-min Rain = 0
KWA1 170856Z 30007KT M01/M06 A3012 RMK A01 T10131058  RH  071%=      5-min Rain = 0
KWA1 170857Z 30006KT M01/M06 A3012 RMK A01 T10121058  RH  071%=      5-min Rain = 0
KWA1 170858Z 30006KT M01/M06 A3012 RMK A01 T10121057  RH  071%=      5-min Rain = 0
KWA1 170859Z 29006KT M01/M06 A3012 RMK A01 T10121058  RH  071%=      5-min Rain = 0
KWA1 170900Z 29006KT M01/M06 A3012 RMK A01 T10121059  RH  070%=      5-min Rain = 0
KWA1 170901Z 29006KT M01/M06 A3012 RMK A01 T10141060  RH  071%=      5-min Rain = 0
KWA1 170902Z 29006KT M02/M06 A3012 RMK A01 T10151060  RH  071%=      5-min Rain = 0
KWA1 170903Z 28005KT M02/M06 A3012 RMK A01 T10161061  RH  071%=      5-min Rain = 0
KWA1 170904Z 28005KT M02/M06 A3011 RMK A01 T10161060  RH  072%=      5-min Rain = 0
KWA1 170905Z 28005KT M02/M06 A3012 RMK A01 T10161060  RH  072%=      5-min Rain = 0
KWA1 170906Z 28005KT M02/M06 A3012 RMK A01 T10171061  RH  072%=      5-min Rain = 0
KWA1 170907Z 29005KT M02/M06 A3012 RMK A01 T10181061  RH  072%=      5-min Rain = 0
KWA1 170908Z 28006KT M02/M06 A3012 RMK A01 T10181060  RH  073%=      5-min Rain = 0
KWA1 170909Z 28006KT M02/M06 A3012 RMK A01 T10171059  RH  073%=      5-min Rain = 0
KWA1 170910Z 28006KT M02/M06 A3012 RMK A01 T10161058  RH  073%=      5-min Rain = 0
KWA1 170911Z 29006KT M02/M06 A3012 RMK A01 T10161058  RH  073%=      5-min Rain = 0
KWA1 170912Z 29006KT M02/M06 A3012 RMK A01 T10151057  RH  073%=      5-min Rain = 0
KWA1 170913Z 29006KT M02/M06 A3012 RMK A01 T10151058  RH  072%=      5-min Rain = 0
KWA1 170914Z 29006KT M02/M06 A3012 RMK A01 T10161059  RH  072%=      5-min Rain = 0
KWA1 170915Z 29005KT M02/M06 A3012 RMK A01 T10161059  RH  073%=      5-min Rain = 0
KWA1 170916Z 29005KT M02/M06 A3012 RMK A01 T10171059  RH  073%=      5-min Rain = 0
KWA1 170917Z 29005KT M02/M06 A3012 RMK A01 T10171058  RH  073%=      5-min Rain = 0
KWA1 170918Z 29005KT M02/M06 A3012 RMK A01 T10171060  RH  073%=      5-min Rain = 0
KWA1 170919Z 28005KT M02/M06 A3012 RMK A01 T10171061  RH  072%=      5-min Rain = 0
KWA1 170920Z 28005KT M02/M06 A3012 RMK A01 T10181061  RH  072%=      5-min Rain = 0
KWA1 170921Z 27004KT M02/M06 A3012 RMK A01 T10181061  RH  073%=      5-min Rain = 0
KWA1 170922Z 28005KT M02/M06 A3012 RMK A01 T10181061  RH  073%=      5-min Rain = 0
KWA1 170923Z 28004KT M02/M06 A3012 RMK A01 T10191061  RH  073%=      5-min Rain = 0
KWA1 170924Z 28004KT M02/M06 A3012 RMK A01 T10191061  RH  073%=      5-min Rain = 0
KWA1 170925Z 27004KT M02/M06 A3012 RMK A01 T10211062  RH  073%=      5-min Rain = 0
KWA1 170926Z 27004KT M02/M06 A3012 RMK A01 T10221061  RH  074%=      5-min Rain = 0
KWA1 170927Z 28005KT M02/M06 A3012 RMK A01 T10221061  RH  075%=      5-min Rain = 0
KWA1 170928Z 28005KT M02/M06 A3012 RMK A01 T10231060  RH  076%=      5-min Rain = 0
KWA1 170929Z 27005KT M02/M06 A3012 RMK A01 T10231059  RH  076%=      5-min Rain = 0
KWA1 170930Z 27005KT M02/M06 A3012 RMK A01 T10231058  RH  077%=      5-min Rain = 0
KWA1 170931Z 27005KT M02/M06 A3011 RMK A01 T10221058  RH  077%=      5-min Rain = 0
KWA1 170932Z 26006KT M02/M06 A3011 RMK A01 T10221057  RH  077%=      5-min Rain = 0
KWA1 170933Z 26005KT M02/M06 A3011 RMK A01 T10221057  RH  077%=      5-min Rain = 0
KWA1 170934Z 26005KT M02/M06 A3011 RMK A01 T10211056  RH  077%=      5-min Rain = 0
KWA1 170935Z 26005KT M02/M06 A3011 RMK A01 T10211056  RH  077%=      5-min Rain = 0
KWA1 170936Z 27005KT M02/M06 A3011 RMK A01 T10211055  RH  077%=      5-min Rain = 0
KWA1 170937Z 27004KT M02/M05 A3011 RMK A01 T10201054  RH  077%=      5-min Rain = 0
KWA1 170938Z 27004KT M02/M05 A3011 RMK A01 T10191053  RH  077%=      5-min Rain = 0
KWA1 170939Z 27004KT M02/M05 A3011 RMK A01 T10181053  RH  077%=      5-min Rain = 0
KWA1 170940Z 27004KT M02/M05 A3011 RMK A01 T10181054  RH  076%=      5-min Rain = 0
KWA1 170941Z 27004KT M02/M05 A3011 RMK A01 T10181054  RH  076%=      5-min Rain = 0
KWA1 170942Z 27004KT M02/M05 A3011 RMK A01 T10191054  RH  077%=      5-min Rain = 0
KWA1 170943Z 28004KT M02/M05 A3011 RMK A01 T10191054  RH  077%=      5-min Rain = 0
KWA1 170944Z 28004KT M02/M05 A3011 RMK A01 T10191053  RH  077%=      5-min Rain = 0
KWA1 170945Z 27005KT M02/M05 A3011 RMK A01 T10181054  RH  077%=      5-min Rain = 0
KWA1 170946Z 26005KT M02/M06 A3011 RMK A01 T10181055  RH  076%=      5-min Rain = 0
KWA1 170947Z 27005KT M02/M06 A3011 RMK A01 T10191056  RH  076%=      5-min Rain = 0
KWA1 170948Z 26005KT M02/M06 A3011 RMK A01 T10201056  RH  076%=      5-min Rain = 0
KWA1 170949Z 26006KT M02/M06 A3011 RMK A01 T10201056  RH  076%=      5-min Rain = 0
KWA1 170950Z 26006KT M02/M06 A3011 RMK A01 T10211057  RH  076%=      5-min Rain = 0
KWA1 170951Z 26006KT M02/M06 A3011 RMK A01 T10221057  RH  077%=      5-min Rain = 0
KWA1 170952Z 25007KT M02/M06 A3011 RMK A01 T10221056  RH  077%=      5-min Rain = 0
KWA1 170953Z 25006KT M02/M06 A3011 RMK A01 T10221056  RH  077%=      5-min Rain = 0
KWA1 170954Z 24006KT M02/M06 A3011 RMK A01 T10211055  RH  077%=      5-min Rain = 0
KWA1 170955Z 25006KT M02/M05 A3011 RMK A01 T10191054  RH  077%=      5-min Rain = 0
KWA1 170956Z 24007KT M02/M05 A3011 RMK A01 T10191053  RH  077%=      5-min Rain = 0
KWA1 170957Z 24007KT M02/M05 A3011 RMK A01 T10191054  RH  077%=      5-min Rain = 0
KWA1 170958Z 25007KT M02/M06 A3011 RMK A01 T10191055  RH  077%=      5-min Rain = 0
KWA1 170959Z 25007KT M02/M06 A3011 RMK A01 T10211055  RH  077%=      5-min Rain = 0
KWA1 171000Z 25007KT M02/M06 A3011 RMK A01 T10221056  RH  077%=      5-min Rain = 0
KWA1 171001Z 25007KT M02/M06 A3011 RMK A01 T10231056  RH  078%=      5-min Rain = 0
KWA1 171002Z 25007KT M02/M06 A3011 RMK A01 T10231057  RH  078%=      5-min Rain = 0
KWA1 171003Z 24007KT M02/M06 A3011 RMK A01 T10241057  RH  078%=      5-min Rain = 0
KWA1 171004Z 24007KT M03/M06 A3011 RMK A01 T10251057  RH  078%=      5-min Rain = 0
KWA1 171005Z 24007KT M03/M06 A3011 RMK A01 T10251057  RH  079%=      5-min Rain = 0
KWA1 171006Z 24007KT M03/M06 A3011 RMK A01 T10261057  RH  079%=      5-min Rain = 0
KWA1 171007Z 23007KT M03/M06 A3011 RMK A01 T10261056  RH  080%=      5-min Rain = 0
KWA1 171008Z 23008KT M03/M06 A3011 RMK A01 T10251055  RH  080%=      5-min Rain = 0
KWA1 171009Z 23008KT M02/M05 A301 RMK A01 T10231053  RH  080%=      5-min Rain = 0
KWA1 171010Z 23008KT M02/M05 A301 RMK A01 T10211052  RH  079%=      5-min Rain = 0
KWA1 171011Z 23008KT M02/M05 A301 RMK A01 T10191051  RH  079%=      5-min Rain = 0
KWA1 171012Z 23008KT M02/M05 A301 RMK A01 T10181050  RH  079%=      5-min Rain = 0
KWA1 171013Z 23008KT M02/M05 A301 RMK A01 T10161050  RH  078%=      5-min Rain = 0
KWA1 171014Z 23008KT M02/M05 A301 RMK A01 T10161050  RH  078%=      5-min Rain = 0
KWA1 171015Z 23008KT M02/M05 A301 RMK A01 T10151050  RH  077%=      5-min Rain = 0
KWA1 171016Z 23008KT M02/M05 A301 RMK A01 T10151050  RH  077%=      5-min Rain = 0
KWA1 171017Z 23008KT M02/M05 A301 RMK A01 T10151051  RH  077%=      5-min Rain = 0
KWA1 171018Z 23008KT M02/M05 A301 RMK A01 T10151050  RH  077%=      5-min Rain = 0
KWA1 171019Z 23009KT M02/M05 A301 RMK A01 T10151050  RH  077%=      5-min Rain = 0
KWA1 171020Z 23009KT M01/M05 A301 RMK A01 T10141049  RH  077%=      5-min Rain = 0
KWA1 171021Z 23009KT M01/M05 A301 RMK A01 T10131048  RH  077%=      5-min Rain = 0
KWA1 171022Z 23010KT M01/M05 A301 RMK A01 T10131048  RH  077%=      5-min Rain = 0
KWA1 171023Z 23010KT M01/M05 A301 RMK A01 T10121048  RH  077%=      5-min Rain = 0
KWA1 171024Z 23010KT M01/M05 A301 RMK A01 T10121048  RH  077%=      5-min Rain = 0
KWA1 171025Z 23010KT M01/M05 A301 RMK A01 T10121048  RH  077%=      5-min Rain = 0
KWA1 171026Z 23010KT M01/M05 A301 RMK A01 T10121048  RH  077%=      5-min Rain = 0
KWA1 171027Z 23010KT M01/M05 A301 RMK A01 T10121047  RH  077%=      5-min Rain = 0
KWA1 171028Z 22009KT M01/M05 A3009 RMK A01 T10121047  RH  077%=      5-min Rain = 0
KWA1 171029Z 22009KT M01/M05 A3009 RMK A01 T10121047  RH  077%=      5-min Rain = 0
KWA1 171030Z 23009KT M01/M05 A3009 RMK A01 T10121047  RH  077%=      5-min Rain = 0
KWA1 171031Z 23009KT M01/M05 A3009 RMK A01 T10121047  RH  077%=      5-min Rain = 0
KWA1 171032Z 23009KT M01/M05 A3009 RMK A01 T10111046  RH  077%=      5-min Rain = 0
KWA1 171033Z 23009KT M01/M05 A3009 RMK A01 T10101045  RH  077%=      5-min Rain = 0
KWA1 171034Z 23009KT M01/M05 A3009 RMK A01 T10101045  RH  077%=      5-min Rain = 0
KWA1 171035Z 23008KT M01/M05 A3009 RMK A01 T10091045  RH  077%=      5-min Rain = 0
KWA1 171036Z 23008KT M01/M04 A3009 RMK A01 T10091044  RH  077%=      5-min Rain = 0
KWA1 171037Z 23008KT M01/M04 A3009 RMK A01 T10081043  RH  077%=      5-min Rain = 0
KWA1 171038Z 23008KT M01/M04 A3009 RMK A01 T10081044  RH  077%=      5-min Rain = 0
KWA1 171039Z 23008KT M01/M04 A3009 RMK A01 T10081044  RH  077%=      5-min Rain = 0
KWA1 171040Z 23009KT M01/M04 A3009 RMK A01 T10081044  RH  077%=      5-min Rain = 0
KWA1 171041Z 23009KT M01/M04 A3009 RMK A01 T10081044  RH  077%=      5-min Rain = 0
KWA1 171042Z 23009KT M01/M04 A3009 RMK A01 T10081044  RH  076%=      5-min Rain = 0
KWA1 171043Z 23009KT M01/M04 A3009 RMK A01 T10081044  RH  077%=      5-min Rain = 0
KWA1 171044Z 22009KT M01/M04 A3009 RMK A01 T10071044  RH  076%=      5-min Rain = 0
KWA1 171045Z 22009KT M01/M04 A3009 RMK A01 T10081044  RH  076%=      5-min Rain = 0
KWA1 171046Z 22009KT M01/M05 A3009 RMK A01 T10091045  RH  076%=      5-min Rain = 0
KWA1 171047Z 22010KT M01/M05 A3009 RMK A01 T10091045  RH  077%=      5-min Rain = 0
KWA1 171048Z 22010KT M01/M04 A3009 RMK A01 T10091044  RH  077%=      5-min Rain = 0
KWA1 171049Z 23009KT M01/M04 A3009 RMK A01 T10081044  RH  077%=      5-min Rain = 0
KWA1 171050Z 23009KT M01/M04 A3009 RMK A01 T10081044  RH  076%=      5-min Rain = 0
KWA1 171051Z 23008KT M01/M04 A3009 RMK A01 T10071043  RH  076%=      5-min Rain = 0
KWA1 171052Z 23008KT M01/M04 A3009 RMK A01 T10061043  RH  076%=      5-min Rain = 0
KWA1 171053Z 23008KT M01/M04 A3009 RMK A01 T10051043  RH  076%=      5-min Rain = 0
KWA1 171054Z 23008KT M01/M04 A3009 RMK A01 T10051043  RH  076%=      5-min Rain = 0
KWA1 171055Z 23009KT M01/M04 A3009 RMK A01 T10051043  RH  076%=      5-min Rain = 0
KWA1 171056Z 23009KT M01/M04 A3009 RMK A01 T10061043  RH  076%=      5-min Rain = 0
KWA1 171057Z 23009KT M01/M04 A3009 RMK A01 T10061043  RH  076%=      5-min Rain = 0
KWA1 171058Z 22009KT M01/M04 A3009 RMK A01 T10051042  RH  076%=      5-min Rain = 0
KWA1 171059Z 22008KT M00/M04 A3009 RMK A01 T10041043  RH  075%=      5-min Rain = 0
KWA1 171100Z 22008KT M00/M04 A3009 RMK A01 T10041043  RH  075%=      5-min Rain = 0
KWA1 171101Z 22009KT M00/M04 A3009 RMK A01 T10031042  RH  075%=      5-min Rain = 0
KWA1 171102Z 22008KT M00/M04 A3009 RMK A01 T10021041  RH  075%=      5-min Rain = 0
KWA1 171103Z 22008KT M00/M04 A3009 RMK A01 T10021041  RH  075%=      5-min Rain = 0
KWA1 171104Z 22008KT M00/M04 A3008 RMK A01 T10021041  RH  075%=      5-min Rain = 0
KWA1 171105Z 22008KT M00/M04 A3008 RMK A01 T10031042  RH  075%=      5-min Rain = 0
KWA1 171106Z 22008KT M00/M04 A3008 RMK A01 T10031042  RH  075%=      5-min Rain = 0
KWA1 171107Z 22008KT M00/M04 A3008 RMK A01 T10041043  RH  075%=      5-min Rain = 0
KWA1 171108Z 22008KT M01/M04 A3008 RMK A01 T10051044  RH  075%=      5-min Rain = 0
KWA1 171109Z 21008KT M01/M04 A3008 RMK A01 T10071044  RH  076%=      5-min Rain = 0
KWA1 171110Z 22007KT M01/M04 A3009 RMK A01 T10071044  RH  076%=      5-min Rain = 0
KWA1 171111Z 22008KT M01/M04 A3009 RMK A01 T10071044  RH  076%=      5-min Rain = 0
KWA1 171112Z 23008KT M01/M04 A3009 RMK A01 T10071044  RH  076%=      5-min Rain = 0
KWA1 171113Z 23007KT M01/M04 A3009 RMK A01 T10071044  RH  076%=      5-min Rain = 0
KWA1 171114Z 23007KT M01/M04 A3009 RMK A01 T10071044  RH  076%=      5-min Rain = 0
KWA1 171115Z 23007KT M01/M04 A3009 RMK A01 T10061044  RH  076%=      5-min Rain = 0
KWA1 171116Z 23006KT M01/M04 A3009 RMK A01 T10061044  RH  075%=      5-min Rain = 0
KWA1 171117Z 23007KT M01/M04 A3009 RMK A01 T10061044  RH  075%=      5-min Rain = 0
KWA1 171118Z 23007KT M01/M04 A3009 RMK A01 T10061044  RH  075%=      5-min Rain = 0
KWA1 171119Z 23008KT M01/M05 A3009 RMK A01 T10061045  RH  075%=      5-min Rain = 0
KWA1 171120Z 24008KT M01/M05 A3009 RMK A01 T10061045  RH  075%=      5-min Rain = 0
KWA1 171121Z 24008KT M01/M05 A3009 RMK A01 T10061045  RH  075%=      5-min Rain = 0
KWA1 171122Z 24009KT M01/M05 A3009 RMK A01 T10061046  RH  074%=      5-min Rain = 0
KWA1 171123Z 24008KT M01/M05 A3009 RMK A01 T10061046  RH  074%=      5-min Rain = 0
KWA1 171124Z 25007KT M01/M05 A3009 RMK A01 T10071047  RH  074%=      5-min Rain = 0
KWA1 171125Z 25007KT M01/M05 A3009 RMK A01 T10081048  RH  074%=      5-min Rain = 0
KWA1 171126Z 25007KT M01/M05 A3009 RMK A01 T10091049  RH  075%=      5-min Rain = 0
KWA1 171127Z 25007KT M01/M05 A3009 RMK A01 T10101049  RH  075%=      5-min Rain = 0
KWA1 171128Z 25006KT M01/M05 A3009 RMK A01 T10111049  RH  075%=      5-min Rain = 0
KWA1 171129Z 25005KT M01/M05 A3009 RMK A01 T10121050  RH  076%=      5-min Rain = 0
KWA1 171130Z 25004KT M01/M05 A301 RMK A01 T10141051  RH  076%=      5-min Rain = 0
KWA1 171131Z 25004KT M02/M05 A301 RMK A01 T10151051  RH  076%=      5-min Rain = 0
KWA1 171132Z 26003KT M02/M05 A301 RMK A01 T10151051  RH  077%=      5-min Rain = 0
KWA1 171133Z 26004KT M01/M05 A301 RMK A01 T10141050  RH  077%=      5-min Rain = 0
KWA1 171134Z 26004KT M01/M05 A301 RMK A01 T10141050  RH  076%=      5-min Rain = 0
KWA1 171135Z 26005KT M01/M05 A301 RMK A01 T10131051  RH  076%=      5-min Rain = 0
KWA1 171136Z 26005KT M01/M05 A301 RMK A01 T10131051  RH  075%=      5-min Rain = 0
KWA1 171137Z 27003KT M01/M05 A301 RMK A01 T10131051  RH  075%=      5-min Rain = 0
KWA1 171138Z 28004KT M01/M05 A301 RMK A01 T10131051  RH  075%=      5-min Rain = 0
KWA1 171139Z 27005KT M01/M05 A301 RMK A01 T10131052  RH  075%=      5-min Rain = 0
KWA1 171140Z 26005KT M01/M05 A301 RMK A01 T10141053  RH  075%=      5-min Rain = 0
KWA1 171141Z 27005KT M01/M05 A3011 RMK A01 T10141053  RH  075%=      5-min Rain = 0
KWA1 171142Z 27005KT M01/M05 A3011 RMK A01 T10131053  RH  075%=      5-min Rain = 0
KWA1 171143Z 28005KT M01/M05 A3011 RMK A01 T10131053  RH  074%=      5-min Rain = 0
KWA1 171144Z 29005KT M01/M05 A3011 RMK A01 T10121052  RH  074%=      5-min Rain = 0
KWA1 171145Z 29005KT M01/M05 A3011 RMK A01 T10111053  RH  073%=      5-min Rain = 0
KWA1 171146Z 29005KT M01/M05 A3011 RMK A01 T10111054  RH  073%=      5-min Rain = 0
KWA1 171147Z 29006KT M01/M05 A3011 RMK A01 T10101054  RH  072%=      5-min Rain = 0
KWA1 171148Z 29006KT M01/M05 A3011 RMK A01 T10091054  RH  071%=      5-min Rain = 0
KWA1 171149Z 31006KT M01/M06 A3011 RMK A01 T10091055  RH  071%=      5-min Rain = 0
KWA1 171150Z 31006KT M01/M06 A3011 RMK A01 T10091055  RH  071%=      5-min Rain = 0
KWA1 171151Z 31006KT M01/M06 A3012 RMK A01 T10111055  RH  072%=      5-min Rain = 0
KWA1 171152Z 31006KT M01/M06 A3012 RMK A01 T10131056  RH  073%=      5-min Rain = 0
KWA1 171153Z 30006KT M02/M06 A3012 RMK A01 T10161056  RH  074%=      5-min Rain = 0
KWA1 171154Z 31006KT M02/M06 A3012 RMK A01 T10181055  RH  076%=      5-min Rain = 0
KWA1 171155Z 31006KT M02/M05 A3012 RMK A01 T10201054  RH  077%=      5-min Rain = 0
KWA1 171156Z 31007KT M02/M05 A3012 RMK A01 T10211053  RH  079%=      5-min Rain = 0
KWA1 171157Z 30007KT M02/M05 A3012 RMK A01 T10221053  RH  079%=      5-min Rain = 0
KWA1 171158Z 30008KT M02/M05 A3012 RMK A01 T10231053  RH  080%=      5-min Rain = 0
KWA1 171159Z 30009KT M02/M05 A3012 RMK A01 T10241053  RH  081%=      5-min Rain = 0
KWA1 171200Z 30008KT M02/M05 A3012 RMK A01 T10241052  RH  081%=      5-min Rain = 0
KWA1 171201Z 30008KT M02/M05 A3012 RMK A01 T10241051  RH  081%=      5-min Rain = 0
KWA1 171202Z 30006KT M02/M05 A3013 RMK A01 T10241051  RH  081%=      5-min Rain = 0
KWA1 171203Z 30006KT M02/M05 A3013 RMK A01 T10241052  RH  081%=      5-min Rain = 0
KWA1 171204Z 29005KT M02/M05 A3013 RMK A01 T10241052  RH  081%=      5-min Rain = 0
KWA1 171205Z 29005KT M03/M05 A3013 RMK A01 T10251053  RH  081%=      5-min Rain = 0
KWA1 171206Z 29006KT M03/M05 A3013 RMK A01 T10261053  RH  081%=      5-min Rain = 0
KWA1 171207Z 29006KT M03/M05 A3013 RMK A01 T10261053  RH  082%=      5-min Rain = 0
KWA1 171208Z 29006KT M03/M05 A3013 RMK A01 T10261052  RH  082%=      5-min Rain = 0
KWA1 171209Z 29006KT M03/M05 A3013 RMK A01 T10261052  RH  082%=      5-min Rain = 0
KWA1 171210Z 29005KT M03/M05 A3013 RMK A01 T10261052  RH  082%=      5-min Rain = 0
KWA1 171211Z 29005KT M03/M05 A3013 RMK A01 T10261052  RH  082%=      5-min Rain = 0
KWA1 171212Z 29004KT M03/M05 A3013 RMK A01 T10261052  RH  082%=      5-min Rain = 0
KWA1 171213Z 29005KT M03/M05 A3013 RMK A01 T10261053  RH  082%=      5-min Rain = 0
KWA1 171214Z 29005KT M03/M05 A3013 RMK A01 T10271053  RH  082%=      5-min Rain = 0
KWA1 171215Z 28005KT M03/M05 A3013 RMK A01 T10271054  RH  082%=      5-min Rain = 0
KWA1 171216Z 28005KT M03/M05 A3013 RMK A01 T10271054  RH  082%=      5-min Rain = 0
KWA1 171217Z 28005KT M03/M05 A3013 RMK A01 T10271053  RH  082%=      5-min Rain = 0
KWA1 171218Z 28006KT M03/M05 A3013 RMK A01 T10271054  RH  082%=      5-min Rain = 0
KWA1 171219Z 28006KT M03/M06 A3013 RMK A01 T10281055  RH  082%=      5-min Rain = 0
KWA1 171220Z 28006KT M03/M06 A3013 RMK A01 T10291056  RH  082%=      5-min Rain = 0
KWA1 171221Z 28006KT M03/M06 A3013 RMK A01 T10291055  RH  082%=      5-min Rain = 0
KWA1 171222Z 29006KT M03/M06 A3013 RMK A01 T10291055  RH  083%=      5-min Rain = 0
KWA1 171223Z 29006KT M03/M05 A3013 RMK A01 T10291054  RH  083%=      5-min Rain = 0
KWA1 171224Z 29006KT M03/M05 A3013 RMK A01 T10291053  RH  083%=      5-min Rain = 0
KWA1 171225Z 29006KT M03/M05 A3013 RMK A01 T10291053  RH  083%=      5-min Rain = 0
KWA1 171226Z 29006KT M03/M05 A3013 RMK A01 T10281053  RH  083%=      5-min Rain = 0
KWA1 171227Z 28006KT M03/M05 A3013 RMK A01 T10281052  RH  084%=      5-min Rain = 0
KWA1 171228Z 28005KT M03/M05 A3013 RMK A01 T10271051  RH  084%=      5-min Rain = 0
KWA1 171229Z 28005KT M03/M05 A3013 RMK A01 T10271051  RH  083%=      5-min Rain = 0
KWA1 171230Z 28005KT M03/M05 A3013 RMK A01 T10261050  RH  084%=      5-min Rain = 0
KWA1 171231Z 28004KT M03/M05 A3013 RMK A01 T10261050  RH  084%=      5-min Rain = 0
KWA1 171232Z 28004KT M03/M05 A3013 RMK A01 T10261050  RH  083%=      5-min Rain = 0
KWA1 171233Z 28004KT M03/M05 A3013 RMK A01 T10261051  RH  083%=      5-min Rain = 0
KWA1 171234Z 28004KT M03/M05 A3014 RMK A01 T10271052  RH  083%=      5-min Rain = 0
KWA1 171235Z 27004KT M03/M05 A3014 RMK A01 T10271052  RH  083%=      5-min Rain = 0
KWA1 171236Z 27004KT M03/M05 A3014 RMK A01 T10271051  RH  083%=      5-min Rain = 0
KWA1 171237Z 26004KT M03/M05 A3013 RMK A01 T10261052  RH  083%=      5-min Rain = 0
KWA1 171238Z 26004KT M03/M05 A3013 RMK A01 T10271052  RH  083%=      5-min Rain = 0
KWA1 171239Z 27005KT M03/M05 A3013 RMK A01 T10271051  RH  083%=      5-min Rain = 0
KWA1 171240Z 27005KT M03/M05 A3014 RMK A01 T10261049  RH  084%=      5-min Rain = 0
KWA1 171241Z 28005KT M02/M05 A3014 RMK A01 T10241048  RH  084%=      5-min Rain = 0
KWA1 171242Z 27005KT M02/M05 A3014 RMK A01 T10231047  RH  084%=      5-min Rain = 0
KWA1 171243Z 27004KT M02/M05 A3014 RMK A01 T10231047  RH  083%=      5-min Rain = 0
KWA1 171244Z 27004KT M02/M05 A3014 RMK A01 T10221048  RH  082%=      5-min Rain = 0
KWA1 171245Z 27004KT M02/M05 A3014 RMK A01 T10231050  RH  082%=      5-min Rain = 0
KWA1 171246Z 27004KT M02/M05 A3014 RMK A01 T10241053  RH  081%=      5-min Rain = 0
KWA1 171247Z 27003KT M03/M05 A3014 RMK A01 T10261054  RH  081%=      5-min Rain = 0
KWA1 171248Z 27003KT M03/M05 A3014 RMK A01 T10271052  RH  083%=      5-min Rain = 0
KWA1 171249Z 27004KT M03/M05 A3014 RMK A01 T10271050  RH  084%=      5-min Rain = 0
KWA1 171250Z 27004KT M03/M05 A3014 RMK A01 T10251047  RH  085%=      5-min Rain = 0
KWA1 171251Z 27004KT M02/M05 A3014 RMK A01 T10231046  RH  085%=      5-min Rain = 0
KWA1 171252Z 27004KT M02/M05 A3014 RMK A01 T10231046  RH  084%=      5-min Rain = 0
KWA1 171253Z 26005KT M02/M05 A3014 RMK A01 T10221047  RH  083%=      5-min Rain = 0
KWA1 171254Z 27005KT M02/M05 A3014 RMK A01 T10231048  RH  083%=      5-min Rain = 0
KWA1 171255Z 27005KT M02/M05 A3014 RMK A01 T10231049  RH  083%=      5-min Rain = 0
KWA1 171256Z 28006KT M02/M05 A3014 RMK A01 T10241049  RH  083%=      5-min Rain = 0
KWA1 171257Z 28006KT M03/M05 A3014 RMK A01 T10251050  RH  083%=      5-min Rain = 0
KWA1 171258Z 27005KT M03/M05 A3014 RMK A01 T10261051  RH  083%=      5-min Rain = 0
KWA1 171259Z 27005KT M03/M05 A3014 RMK A01 T10271053  RH  083%=      5-min Rain = 0
KWA1 171300Z 26006KT M03/M06 A3014 RMK A01 T10301055  RH  083%=      5-min Rain = 0
KWA1 171301Z 26006KT M03/M05 A3014 RMK A01 T10301053  RH  084%=      5-min Rain = 0
KWA1 171302Z 26007KT M03/M05 A3014 RMK A01 T10311052  RH  085%=      5-min Rain = 0
KWA1 171303Z 26006KT M03/M05 A3014 RMK A01 T10301052  RH  085%=      5-min Rain = 0
KWA1 171304Z 26007KT M03/M05 A3014 RMK A01 T10301050  RH  086%=      5-min Rain = 0
KWA1 171305Z 26007KT M03/M05 A3014 RMK A01 T10281047  RH  087%=      5-min Rain = 0
KWA1 171306Z 26007KT M03/M05 A3014 RMK A01 T10261046  RH  086%=      5-min Rain = 0
KWA1 171307Z 26007KT M03/M05 A3014 RMK A01 T10271048  RH  085%=      5-min Rain = 0
KWA1 171308Z 26007KT M03/M05 A3014 RMK A01 T10271049  RH  085%=      5-min Rain = 0
KWA1 171309Z 27007KT M03/M05 A3014 RMK A01 T10281049  RH  085%=      5-min Rain = 0
KWA1 171310Z 27007KT M03/M05 A3015 RMK A01 T10281049  RH  085%=      5-min Rain = 0
KWA1 171311Z 27008KT M03/M05 A3015 RMK A01 T10281050  RH  085%=      5-min Rain = 0
KWA1 171312Z 26008KT M03/M05 A3015 RMK A01 T10291050  RH  085%=      5-min Rain = 0
KWA1 171313Z 26008KT M03/M05 A3015 RMK A01 T10291050  RH  086%=      5-min Rain = 0
KWA1 171314Z 26008KT M03/M05 A3015 RMK A01 T10291050  RH  085%=      5-min Rain = 0
KWA1 171315Z 26007KT M03/M05 A3015 RMK A01 T10301052  RH  085%=      5-min Rain = 0
KWA1 171316Z 26008KT M03/M05 A3015 RMK A01 T10321053  RH  085%=      5-min Rain = 0
KWA1 171317Z 26008KT M03/M05 A3015 RMK A01 T10331053  RH  086%=      5-min Rain = 0
KWA1 171318Z 26008KT M03/M05 A3015 RMK A01 T10341054  RH  086%=      5-min Rain = 0
KWA1 171319Z 26008KT M04/M06 A3016 RMK A01 T10351055  RH  086%=      5-min Rain = 0
KWA1 171320Z 26009KT M04/M06 A3016 RMK A01 T10351055  RH  086%=      5-min Rain = 0
KWA1 171321Z 26009KT M03/M05 A3016 RMK A01 T10341053  RH  087%=      5-min Rain = 0
KWA1 171322Z 26009KT M03/M05 A3016 RMK A01 T10301049  RH  087%=      5-min Rain = 0
KWA1 171323Z 26009KT M03/M05 A3016 RMK A01 T10271048  RH  086%=      5-min Rain = 0
KWA1 171324Z 26009KT M03/M05 A3016 RMK A01 T10261048  RH  085%=      5-min Rain = 0
KWA1 171325Z 26010KT M03/M05 A3016 RMK A01 T10251046  RH  085%=      5-min Rain = 0
KWA1 171326Z 26010KT M02/M05 A3016 RMK A01 T10241045  RH  085%=      5-min Rain = 0
KWA1 171327Z 25010KT M02/M04 A3016 RMK A01 T10231044  RH  085%=      5-min Rain = 0
KWA1 171328Z 25010KT M02/M04 A3016 RMK A01 T10221044  RH  085%=      5-min Rain = 0
KWA1 171329Z 25009KT M02/M04 A3016 RMK A01 T10221044  RH  085%=      5-min Rain = 0
KWA1 171330Z 25010KT M02/M05 A3016 RMK A01 T10221045  RH  084%=      5-min Rain = 0
KWA1 171331Z 25010KT M02/M05 A3016 RMK A01 T10221045  RH  084%=      5-min Rain = 0
KWA1 171332Z 25009KT M02/M05 A3016 RMK A01 T10221045  RH  084%=      5-min Rain = 0
KWA1 171333Z 25009KT M02/M05 A3016 RMK A01 T10221045  RH  084%=      5-min Rain = 0
KWA1 171334Z 25009KT M02/M05 A3016 RMK A01 T10221045  RH  084%=      5-min Rain = 0
KWA1 171335Z 25009KT M02/M05 A3016 RMK A01 T10221045  RH  084%=      5-min Rain = 0
KWA1 171336Z 25010KT M02/M05 A3016 RMK A01 T10221046  RH  084%=      5-min Rain = 0
KWA1 171337Z 25009KT M02/M05 A3016 RMK A01 T10221046  RH  084%=      5-min Rain = 0
KWA1 171338Z 25009KT M02/M05 A3016 RMK A01 T10221046  RH  084%=      5-min Rain = 0
KWA1 171339Z 25009KT M02/M05 A3016 RMK A01 T10221046  RH  084%=      5-min Rain = 0
KWA1 171340Z 25008KT M02/M05 A3016 RMK A01 T10221046  RH  084%=      5-min Rain = 0
KWA1 171341Z 25009KT M02/M05 A3016 RMK A01 T10231047  RH  084%=      5-min Rain = 0
KWA1 171342Z 25008KT M02/M05 A3016 RMK A01 T10241047  RH  084%=      5-min Rain = 0
KWA1 171343Z 25008KT M02/M05 A3016 RMK A01 T10241047  RH  085%=      5-min Rain = 0
KWA1 171344Z 25008KT M03/M05 A3016 RMK A01 T10251046  RH  085%=      5-min Rain = 0
KWA1 171345Z 24008KT M02/M05 A3016 RMK A01 T10241045  RH  086%=      5-min Rain = 0
KWA1 171346Z 25010KT M02/M04 A3016 RMK A01 T10241044  RH  086%=      5-min Rain = 0
KWA1 171347Z 25009KT M02/M04 A3016 RMK A01 T10221042  RH  087%=      5-min Rain = 0
KWA1 171348Z 25008KT M02/M04 A3016 RMK A01 T10211041  RH  086%=      5-min Rain = 0
KWA1 171349Z 25008KT M02/M04 A3016 RMK A01 T10211041  RH  086%=      5-min Rain = 0
KWA1 171350Z 25009KT M02/M04 A3017 RMK A01 T10211042  RH  086%=      5-min Rain = 0
KWA1 171351Z 25009KT M02/M04 A3017 RMK A01 T10201041  RH  086%=      5-min Rain = 0
KWA1 171352Z 25009KT M02/M04 A3017 RMK A01 T10191040  RH  085%=      5-min Rain = 0
KWA1 171353Z 25009KT M02/M04 A3017 RMK A01 T10181040  RH  085%=      5-min Rain = 0
KWA1 171354Z 25008KT M02/M04 A3017 RMK A01 T10171040  RH  085%=      5-min Rain = 0
KWA1 171355Z 25008KT M02/M04 A3017 RMK A01 T10171040  RH  084%=      5-min Rain = 0
KWA1 171356Z 25007KT M02/M04 A3017 RMK A01 T10161040  RH  084%=      5-min Rain = 0
KWA1 171357Z 26007KT M02/M04 A3017 RMK A01 T10161041  RH  083%=      5-min Rain = 0
KWA1 171358Z 26007KT M02/M04 A3017 RMK A01 T10161041  RH  083%=      5-min Rain = 0
KWA1 171359Z 26008KT M02/M04 A3017 RMK A01 T10161042  RH  083%=      5-min Rain = 0
KWA1 171400Z 26008KT M02/M04 A3017 RMK A01 T10171042  RH  083%=      5-min Rain = 0
KWA1 171401Z 26008KT M02/M04 A3017 RMK A01 T10171042  RH  083%=      5-min Rain = 0
KWA1 171402Z 26007KT M02/M04 A3017 RMK A01 T10171042  RH  083%=      5-min Rain = 0
KWA1 171403Z 26007KT M02/M04 A3018 RMK A01 T10171042  RH  083%=      5-min Rain = 0
KWA1 171404Z 26007KT M02/M04 A3018 RMK A01 T10161042  RH  083%=      5-min Rain = 0
KWA1 171405Z 27006KT M02/M04 A3018 RMK A01 T10161042  RH  082%=      5-min Rain = 0
KWA1 171406Z 26007KT M02/M04 A3018 RMK A01 T10151042  RH  082%=      5-min Rain = 0
KWA1 171407Z 26007KT M02/M04 A3018 RMK A01 T10151042  RH  082%=      5-min Rain = 0
KWA1 171408Z 26008KT M02/M04 A3018 RMK A01 T10151042  RH  082%=      5-min Rain = 0
KWA1 171409Z 27006KT M02/M04 A3018 RMK A01 T10151041  RH  082%=      5-min Rain = 0
KWA1 171410Z 26007KT M02/M04 A3018 RMK A01 T10151041  RH  082%=      5-min Rain = 0
KWA1 171411Z 26007KT M02/M04 A3018 RMK A01 T10151041  RH  082%=      5-min Rain = 0
KWA1 171412Z 26008KT M01/M04 A3018 RMK A01 T10141040  RH  082%=      5-min Rain = 0
KWA1 171413Z 26008KT M01/M04 A3018 RMK A01 T10141040  RH  082%=      5-min Rain = 0
KWA1 171414Z 27007KT M01/M04 A3018 RMK A01 T10131039  RH  082%=      5-min Rain = 0
KWA1 171415Z 26007KT M01/M04 A3018 RMK A01 T10131039  RH  082%=      5-min Rain = 0
KWA1 171416Z 26008KT M01/M04 A3018 RMK A01 T10121038  RH  082%=      5-min Rain = 0
KWA1 171417Z 26007KT M01/M04 A3018 RMK A01 T10111038  RH  082%=      5-min Rain = 0
KWA1 171418Z 27007KT M01/M04 A3018 RMK A01 T10101037  RH  082%=      5-min Rain = 0
KWA1 171419Z 27007KT M01/M04 A3018 RMK A01 T10101037  RH  082%=      5-min Rain = 0
KWA1 171420Z 26007KT M01/M04 A3018 RMK A01 T10091037  RH  081%=      5-min Rain = 0
KWA1 171421Z 26007KT M01/M04 A3018 RMK A01 T10081036  RH  081%=      5-min Rain = 0
KWA1 171422Z 26007KT M01/M04 A3018 RMK A01 T10071036  RH  081%=      5-min Rain = 0
KWA1 171423Z 26007KT M01/M04 A3018 RMK A01 T10071035  RH  081%=      5-min Rain = 0
KWA1 171424Z 27007KT M01/M04 A3018 RMK A01 T10061035  RH  081%=      5-min Rain = 0
KWA1 171425Z 27007KT M01/M03 A3018 RMK A01 T10051034  RH  081%=      5-min Rain = 0
KWA1 171426Z 27007KT M00/M03 A3018 RMK A01 T10031033  RH  080%=      5-min Rain = 0
KWA1 171427Z 26007KT M00/M03 A3018 RMK A01 T10021033  RH  080%=      5-min Rain = 0
KWA1 171428Z 26008KT M00/M03 A3018 RMK A01 T10011033  RH  079%=      5-min Rain = 0
KWA1 171429Z 26008KT 00/03 A3018 RMK A01 T00-00-32  RH  079%=      5-min Rain = 0
KWA1 171430Z 26008KT 00/M03 A3018 RMK A01 T00011031  RH  079%=      5-min Rain = 0
KWA1 171431Z 26007KT 00/M03 A3018 RMK A01 T00021031  RH  078%=      5-min Rain = 0
KWA1 171432Z 27007KT 00/M03 A3018 RMK A01 T00031030  RH  078%=      5-min Rain = 0
KWA1 171433Z 27006KT 00/M03 A3018 RMK A01 T00041030  RH  078%=      5-min Rain = 0
KWA1 171434Z 27006KT 01/M03 A3018 RMK A01 T00051030  RH  078%=      5-min Rain = 0
KWA1 171435Z 27006KT 01/M03 A3018 RMK A01 T00061029  RH  078%=      5-min Rain = 0
KWA1 171436Z 26008KT 01/M03 A3018 RMK A01 T00071028  RH  077%=      5-min Rain = 0
KWA1 171437Z 26008KT 01/M03 A3018 RMK A01 T00081029  RH  076%=      5-min Rain = 0
KWA1 171438Z 26008KT 01/M03 A3018 RMK A01 T00091029  RH  076%=      5-min Rain = 0
KWA1 171439Z 26008KT 01/M03 A3018 RMK A01 T00091029  RH  076%=      5-min Rain = 0
KWA1 171440Z 26008KT 01/M03 A3018 RMK A01 T00101028  RH  076%=      5-min Rain = 0
KWA1 171441Z 26008KT 01/M03 A3018 RMK A01 T00101028  RH  076%=      5-min Rain = 0
KWA1 171442Z 26007KT 01/M03 A3019 RMK A01 T00111028  RH  075%=      5-min Rain = 0
KWA1 171443Z 26007KT 01/M03 A3019 RMK A01 T00111029  RH  075%=      5-min Rain = 0
KWA1 171444Z 26007KT 01/M03 A3019 RMK A01 T00111028  RH  075%=      5-min Rain = 0
KWA1 171445Z 26007KT 01/M03 A3019 RMK A01 T00121026  RH  076%=      5-min Rain = 0
KWA1 171446Z 26007KT 01/M03 A3019 RMK A01 T00131027  RH  075%=      5-min Rain = 0
KWA1 171447Z 26007KT 01/M03 A3019 RMK A01 T00131027  RH  075%=      5-min Rain = 0
KWA1 171448Z 26007KT 01/M03 A3019 RMK A01 T00131027  RH  074%=      5-min Rain = 0
KWA1 171449Z 26006KT 01/M03 A3019 RMK A01 T00141026  RH  075%=      5-min Rain = 0
KWA1 171450Z 26007KT 01/M03 A3019 RMK A01 T00141028  RH  074%=      5-min Rain = 0
KWA1 171451Z 26007KT 02/M03 A3019 RMK A01 T00151029  RH  073%=      5-min Rain = 0
KWA1 171452Z 26006KT 01/M03 A3019 RMK A01 T00141029  RH  073%=      5-min Rain = 0
KWA1 171453Z 26006KT 02/M03 A3019 RMK A01 T00151027  RH  074%=      5-min Rain = 0
KWA1 171454Z 26007KT 02/M03 A3019 RMK A01 T00161027  RH  073%=      5-min Rain = 0
KWA1 171455Z 27006KT 02/M03 A3019 RMK A01 T00161027  RH  073%=      5-min Rain = 0
KWA1 171456Z 26006KT 02/M03 A3019 RMK A01 T00161027  RH  073%=      5-min Rain = 0
KWA1 171457Z 26007KT 02/M02 A3019 RMK A01 T00181024  RH  074%=      5-min Rain = 0
KWA1 171458Z 26007KT 02/M02 A3019 RMK A01 T00191023  RH  073%=      5-min Rain = 0
KWA1 171459Z 26007KT 02/M03 A3019 RMK A01 T00191025  RH  072%=      5-min Rain = 0
KWA1 171500Z 26007KT 02/M03 A3019 RMK A01 T00191026  RH  072%=      5-min Rain = 0
KWA1 171501Z 26007KT 02/M03 A3019 RMK A01 T00201026  RH  071%=      5-min Rain = 0
KWA1 171502Z 25006KT 02/M02 A3019 RMK A01 T00211023  RH  073%=      5-min Rain = 0
KWA1 171503Z 25006KT 02/M02 A3019 RMK A01 T00211024  RH  072%=      5-min Rain = 0
KWA1 171504Z 25006KT 02/M02 A3019 RMK A01 T00211024  RH  072%=      5-min Rain = 0
KWA1 171505Z 25006KT 02/M03 A3019 RMK A01 T00211025  RH  071%=      5-min Rain = 0
KWA1 171506Z 25006KT 02/M02 A3019 RMK A01 T00221024  RH  072%=      5-min Rain = 0
KWA1 171507Z 25007KT 02/M02 A3019 RMK A01 T00231023  RH  072%=      5-min Rain = 0
KWA1 171508Z 25007KT 02/M02 A3019 RMK A01 T00231022  RH  072%=      5-min Rain = 0
KWA1 171509Z 25007KT 02/M02 A3019 RMK A01 T00241022  RH  072%=      5-min Rain = 0
KWA1 171510Z 25007KT 02/M02 A3019 RMK A01 T00241024  RH  071%=      5-min Rain = 0
KWA1 171511Z 25007KT 03/M02 A3019 RMK A01 T00251022  RH  071%=      5-min Rain = 0
KWA1 171512Z 25007KT 03/M02 A3019 RMK A01 T00261020  RH  072%=      5-min Rain = 0
KWA1 171513Z 25007KT 03/M02 A3019 RMK A01 T00261022  RH  071%=      5-min Rain = 0
KWA1 171514Z 25006KT 03/M02 A3019 RMK A01 T00271019  RH  072%=      5-min Rain = 0
KWA1 171515Z 25006KT 03/M02 A3019 RMK A01 T00281019  RH  071%=      5-min Rain = 0
KWA1 171516Z 25006KT 03/M02 A3019 RMK A01 T00291019  RH  070%=      5-min Rain = 0
KWA1 171517Z 25006KT 03/M02 A3019 RMK A01 T00301019  RH  070%=      5-min Rain = 0
KWA1 171518Z 25006KT 03/M02 A302 RMK A01 T00311018  RH  070%=      5-min Rain = 0
KWA1 171519Z 26005KT 03/M02 A302 RMK A01 T00321018  RH  070%=      5-min Rain = 0
KWA1 171520Z 26005KT 03/M02 A302 RMK A01 T00331021  RH  068%=      5-min Rain = 0
KWA1 171521Z 26005KT 03/M02 A302 RMK A01 T00331019  RH  069%=      5-min Rain = 0
KWA1 171522Z 25005KT 03/M02 A302 RMK A01 T00331019  RH  069%=      5-min Rain = 0
KWA1 171523Z 25005KT 03/M02 A302 RMK A01 T00331017  RH  070%=      5-min Rain = 0
KWA1 171524Z 25005KT 03/M02 A302 RMK A01 T00331018  RH  069%=      5-min Rain = 0
KWA1 171525Z 26004KT 03/M02 A302 RMK A01 T00331018  RH  069%=      5-min Rain = 0
KWA1 171526Z 26004KT 03/M02 A302 RMK A01 T00341017  RH  069%=      5-min Rain = 0
KWA1 171527Z 26005KT 04/M02 A302 RMK A01 T00351018  RH  068%=      5-min Rain = 0
KWA1 171528Z 26005KT 04/M02 A302 RMK A01 T00351018  RH  069%=      5-min Rain = 0
KWA1 171529Z 25004KT 04/M02 A302 RMK A01 T00351017  RH  069%=      5-min Rain = 0
KWA1 171530Z 25004KT 04/M02 A302 RMK A01 T00351018  RH  068%=      5-min Rain = 0
KWA1 171531Z 27003KT 04/M02 A302 RMK A01 T00351016  RH  069%=      5-min Rain = 0
KWA1 171532Z 27003KT 04/M02 A302 RMK A01 T00371017  RH  068%=      5-min Rain = 0
KWA1 171533Z 27003KT 04/M02 A302 RMK A01 T00371018  RH  067%=      5-min Rain = 0
KWA1 171534Z 27003KT 04/M02 A302 RMK A01 T00381020  RH  066%=      5-min Rain = 0
KWA1 171535Z 26003KT 04/M02 A302 RMK A01 T00391019  RH  066%=      5-min Rain = 0
KWA1 171536Z 26002KT 04/M02 A302 RMK A01 T00391019  RH  066%=      5-min Rain = 0
KWA1 171537Z 27002KT 04/M02 A302 RMK A01 T00401018  RH  066%=      5-min Rain = 0
KWA1 171538Z 25002KT 04/M02 A302 RMK A01 T00421020  RH  064%=      5-min Rain = 0
KWA1 171539Z 27002KT 04/M02 A302 RMK A01 T00431019  RH  064%=      5-min Rain = 0
KWA1 171540Z 26002KT 04/M02 A302 RMK A01 T00431021  RH  063%=      5-min Rain = 0
KWA1 171541Z 27002KT 04/M02 A302 RMK A01 T00441019  RH  064%=      5-min Rain = 0
KWA1 171542Z 28002KT 05/M02 A302 RMK A01 T00461017  RH  064%=      5-min Rain = 0
KWA1 171543Z 26002KT 05/M02 A302 RMK A01 T00481015  RH  064%=      5-min Rain = 0
KWA1 171544Z 28002KT 05/M02 A302 RMK A01 T00481019  RH  062%=      5-min Rain = 0
KWA1 171545Z 30002KT 05/M02 A3021 RMK A01 T00481023  RH  060%=      5-min Rain = 0
KWA1 171546Z 30002KT 05/M03 A3021 RMK A01 T00481025  RH  059%=      5-min Rain = 0
KWA1 171547Z 30001KT 05/M02 A302 RMK A01 T00481024  RH  060%=      5-min Rain = 0
KWA1 171548Z 32001KT 05/M02 A302 RMK A01 T00481022  RH  060%=      5-min Rain = 0
KWA1 171549Z 31001KT 05/M02 A302 RMK A01 T00501019  RH  061%=      5-min Rain = 0
KWA1 171550Z 32001KT 05/M02 A302 RMK A01 T00511021  RH  060%=      5-min Rain = 0
KWA1 171551Z 30002KT 05/M02 A302 RMK A01 T00531020  RH  059%=      5-min Rain = 0
KWA1 171552Z 30002KT 05/M02 A302 RMK A01 T00531022  RH  058%=      5-min Rain = 0
KWA1 171553Z 31001KT 05/M02 A302 RMK A01 T00541023  RH  058%=      5-min Rain = 0
KWA1 171554Z 36002KT 05/M02 A302 RMK A01 T00531022  RH  058%=      5-min Rain = 0
KWA1 171555Z 00001KT 05/M02 A302 RMK A01 T00541022  RH  058%=      5-min Rain = 0
KWA1 171556Z 36001KT 05/M02 A302 RMK A01 T00531021  RH  059%=      5-min Rain = 0
KWA1 171557Z 32001KT 06/M02 A302 RMK A01 T00551020  RH  059%=      5-min Rain = 0
KWA1 171558Z 29001KT 06/M02 A3021 RMK A01 T00551021  RH  058%=      5-min Rain = 0
KWA1 171559Z 28000KT 06/M02 A3021 RMK A01 T00571018  RH  059%=      5-min Rain = 0
KWA1 171600Z 00000KT 06/M01 A3021 RMK A01 T00581014  RH  060%=      5-min Rain = 0
KWA1 171601Z 28001KT 06/M01 A3021 RMK A01 T00601014  RH  059%=      5-min Rain = 0
KWA1 171602Z 28002KT 06/M02 A3021 RMK A01 T00621015  RH  058%=      5-min Rain = 0
KWA1 171603Z 29002KT 06/M02 A302 RMK A01 T00601021  RH  056%=      5-min Rain = 0
KWA1 171604Z 27002KT 06/M02 A302 RMK A01 T00581023  RH  056%=      5-min Rain = 0
KWA1 171605Z 26001KT 06/M03 A302 RMK A01 T00571025  RH  056%=      5-min Rain = 0
KWA1 171606Z 25001KT 06/M03 A302 RMK A01 T00571025  RH  056%=      5-min Rain = 0
KWA1 171607Z 24000KT 06/M03 A302 RMK A01 T00571026  RH  055%=      5-min Rain = 0
KWA1 171608Z 00000KT 06/M03 A3021 RMK A01 T00591025  RH  055%=      5-min Rain = 0
KWA1 171609Z 00000KT 06/M02 A3021 RMK A01 T00621022  RH  055%=      5-min Rain = 0
KWA1 171610Z 27000KT 07/M02 A3021 RMK A01 T00671016  RH  055%=      5-min Rain = 0
KWA1 171611Z 22000KT 07/M02 A3021 RMK A01 T00691019  RH  053%=      5-min Rain = 0
KWA1 171612Z 21000KT 07/M02 A3021 RMK A01 T00691022  RH  052%=      5-min Rain = 0
KWA1 171613Z 25000KT 07/M02 A3021 RMK A01 T00691022  RH  052%=      5-min Rain = 0
KWA1 171614Z 29001KT 07/M02 A3021 RMK A01 T00711017  RH  053%=      5-min Rain = 0
KWA1 171615Z 28001KT 07/M02 A3021 RMK A01 T00721017  RH  053%=      5-min Rain = 0
KWA1 171616Z 25001KT 07/M02 A3021 RMK A01 T00711018  RH  053%=      5-min Rain = 0
KWA1 171617Z 23001KT 07/M02 A3021 RMK A01 T00701020  RH  053%=      5-min Rain = 0
KWA1 171618Z 22000KT 07/M02 A3021 RMK A01 T00701023  RH  052%=      5-min Rain = 0
KWA1 171619Z 00000KT 07/M03 A3021 RMK A01 T00701025  RH  051%=      5-min Rain = 0
KWA1 171620Z 00000KT 07/M02 A3021 RMK A01 T00701020  RH  052%=      5-min Rain = 0
KWA1 171621Z 20000KT 07/M02 A3021 RMK A01 T00721020  RH  052%=      5-min Rain = 0
KWA1 171622Z 20001KT 07/M02 A3021 RMK A01 T00731020  RH  052%=      5-min Rain = 0
KWA1 171623Z 18000KT 07/M02 A302 RMK A01 T00731023  RH  051%=      5-min Rain = 0
KWA1 171624Z 00000KT 07/M02 A302 RMK A01 T00721022  RH  051%=      5-min Rain = 0
KWA1 171625Z 00000KT 07/M02 A302 RMK A01 T00731022  RH  051%=      5-min Rain = 0
KWA1 171626Z 18000KT 07/M02 A302 RMK A01 T00741021  RH  051%=      5-min Rain = 0
KWA1 171627Z 13001KT 08/M02 A302 RMK A01 T00761022  RH  050%=      5-min Rain = 0
KWA1 171628Z 12000KT 08/M02 A302 RMK A01 T00761024  RH  049%=      5-min Rain = 0
KWA1 171629Z 12000KT 08/M02 A302 RMK A01 T00781020  RH  050%=      5-min Rain = 0
KWA1 171630Z 16001KT 08/M02 A302 RMK A01 T00801018  RH  050%=      5-min Rain = 0
KWA1 171631Z 17002KT 08/M02 A302 RMK A01 T00811019  RH  049%=      5-min Rain = 0
KWA1 171632Z 16002KT 08/M02 A302 RMK A01 T00801020  RH  049%=      5-min Rain = 0
KWA1 171633Z 14001KT 08/M02 A302 RMK A01 T00801021  RH  049%=      5-min Rain = 0
KWA1 171634Z 10001KT 08/M02 A302 RMK A01 T00801024  RH  048%=      5-min Rain = 0
KWA1 171635Z 09002KT 08/M03 A3021 RMK A01 T00811027  RH  047%=      5-min Rain = 0
KWA1 171636Z 08002KT 08/M03 A3021 RMK A01 T00821025  RH  047%=      5-min Rain = 0
KWA1 171637Z 07001KT 08/M02 A3021 RMK A01 T00831024  RH  047%=      5-min Rain = 0
KWA1 171638Z 08001KT 08/M03 A3021 RMK A01 T00821026  RH  046%=      5-min Rain = 0
KWA1 171639Z 11002KT 08/M03 A3021 RMK A01 T00811026  RH  047%=      5-min Rain = 0
KWA1 171640Z 09001KT 08/M02 A3021 RMK A01 T00821024  RH  047%=      5-min Rain = 0
KWA1 171641Z 09002KT 08/M02 A3021 RMK A01 T00821023  RH  048%=      5-min Rain = 0
KWA1 171642Z 14001KT 08/M02 A3021 RMK A01 T00831020  RH  048%=      5-min Rain = 0
KWA1 171643Z 12002KT 09/M02 A3021 RMK A01 T00851018  RH  048%=      5-min Rain = 0
KWA1 171644Z 10002KT 09/M02 A3021 RMK A01 T00871020  RH  047%=      5-min Rain = 0
KWA1 171645Z 09002KT 09/M02 A3021 RMK A01 T00881021  RH  047%=      5-min Rain = 0
KWA1 171646Z 13002KT 09/M02 A3021 RMK A01 T00881022  RH  046%=      5-min Rain = 0
KWA1 171647Z 13002KT 09/M02 A3021 RMK A01 T00891023  RH  045%=      5-min Rain = 0
KWA1 171648Z 15001KT 09/M03 A3021 RMK A01 T00901025  RH  044%=      5-min Rain = 0
KWA1 171649Z 14002KT 09/M02 A3021 RMK A01 T00931021  RH  045%=      5-min Rain = 0
KWA1 171650Z 13003KT 10/M02 A3021 RMK A01 T00951021  RH  044%=      5-min Rain = 0
KWA1 171651Z 12003KT 09/M02 A3021 RMK A01 T00941023  RH  044%=      5-min Rain = 0
KWA1 171652Z 12003KT 09/M02 A3021 RMK A01 T00941024  RH  043%=      5-min Rain = 0
KWA1 171653Z 10001KT 09/M03 A3021 RMK A01 T00931025  RH  043%=      5-min Rain = 0
KWA1 171654Z 13001KT 10/M03 A3021 RMK A01 T00951025  RH  043%=      5-min Rain = 0
KWA1 171655Z 14002KT 10/M02 A3021 RMK A01 T00981020  RH  044%=      5-min Rain = 0
KWA1 171656Z 10002KT 10/M02 A3021 RMK A01 T01001020  RH  043%=      5-min Rain = 0
KWA1 171657Z 13002KT 10/M02 A3021 RMK A01 T01001024  RH  042%=      5-min Rain = 0
KWA1 171658Z 14002KT 10/M03 A3021 RMK A01 T00991027  RH  041%=      5-min Rain = 0
KWA1 171659Z 09003KT 10/M03 A302 RMK A01 T00981026  RH  042%=      5-min Rain = 0
KWA1 171700Z 10002KT 10/M02 A302 RMK A01 T00981024  RH  042%=      5-min Rain = 0
KWA1 171701Z 10003KT 10/M02 A302 RMK A01 T00991023  RH  042%=      5-min Rain = 0
KWA1 171702Z 09002KT 10/M03 A302 RMK A01 T00991028  RH  041%=      5-min Rain = 0
KWA1 171703Z 16003KT 10/M02 A302 RMK A01 T01001023  RH  042%=      5-min Rain = 0
KWA1 171704Z 16003KT 10/M03 A302 RMK A01 T01011025  RH  041%=      5-min Rain = 0
KWA1 171705Z 13003KT 10/M02 A302 RMK A01 T01011022  RH  042%=      5-min Rain = 0
KWA1 171706Z 10003KT 10/M02 A302 RMK A01 T01021024  RH  041%=      5-min Rain = 0
KWA1 171707Z 10003KT 10/M03 A302 RMK A01 T01021027  RH  040%=      5-min Rain = 0
KWA1 171708Z 14003KT 10/M02 A302 RMK A01 T01031024  RH  041%=      5-min Rain = 0
KWA1 171709Z 15003KT 10/M02 A302 RMK A01 T01041023  RH  041%=      5-min Rain = 0
KWA1 171710Z 14004KT 11/M02 A302 RMK A01 T01051022  RH  041%=      5-min Rain = 0
KWA1 171711Z 13003KT 11/M02 A302 RMK A01 T01051024  RH  040%=      5-min Rain = 0
KWA1 171712Z 14002KT 11/M03 A302 RMK A01 T01051025  RH  040%=      5-min Rain = 0
KWA1 171713Z 13003KT 11/M03 A302 RMK A01 T01051026  RH  040%=      5-min Rain = 0
KWA1 171714Z 14004KT 11/M03 A302 RMK A01 T01071026  RH  039%=      5-min Rain = 0
KWA1 171715Z 15002KT 11/M03 A302 RMK A01 T01061032  RH  038%=      5-min Rain = 0
KWA1 171716Z 11002KT 11/M03 A302 RMK A01 T01061033  RH  037%=      5-min Rain = 0
KWA1 171717Z 12003KT 11/M02 A302 RMK A01 T01081024  RH  040%=      5-min Rain = 0
KWA1 171718Z 14002KT 11/M03 A3019 RMK A01 T01091026  RH  039%=      5-min Rain = 0
KWA1 171719Z 10002KT 11/M02 A3019 RMK A01 T01091022  RH  040%=      5-min Rain = 0
KWA1 171720Z 11003KT 11/M02 A3019 RMK A01 T01111020  RH  040%=      5-min Rain = 0
KWA1 171721Z 12003KT 11/M02 A3019 RMK A01 T01111021  RH  040%=      5-min Rain = 0
KWA1 171722Z 11004KT 11/M03 A3019 RMK A01 T01111025  RH  038%=      5-min Rain = 0
KWA1 171723Z 11003KT 11/M03 A3019 RMK A01 T01111025  RH  038%=      5-min Rain = 0
KWA1 171724Z 12002KT 11/M03 A3019 RMK A01 T01111029  RH  038%=      5-min Rain = 0
KWA1 171725Z 13001KT 11/M03 A3019 RMK A01 T01101030  RH  037%=      5-min Rain = 0
KWA1 171726Z 16001KT 11/M03 A3019 RMK A01 T01111029  RH  037%=      5-min Rain = 0
KWA1 171727Z 17002KT 11/M03 A3019 RMK A01 T01121030  RH  037%=      5-min Rain = 0
KWA1 171728Z 16003KT 11/M03 A3019 RMK A01 T01131026  RH  038%=      5-min Rain = 0
KWA1 171729Z 13003KT 12/M03 A3019 RMK A01 T01151025  RH  037%=      5-min Rain = 0
KWA1 171730Z 09004KT 12/M03 A3019 RMK A01 T01171026  RH  037%=      5-min Rain = 0
KWA1 171731Z 08003KT 12/M03 A3019 RMK A01 T01171027  RH  036%=      5-min Rain = 0
KWA1 171732Z 09004KT 12/M03 A3019 RMK A01 T01161030  RH  036%=      5-min Rain = 0
KWA1 171733Z 10002KT 11/M03 A3019 RMK A01 T01141033  RH  036%=      5-min Rain = 0
KWA1 171734Z 12002KT 11/M03 A3019 RMK A01 T01141033  RH  036%=      5-min Rain = 0
KWA1 171735Z 14004KT 11/M04 A3019 RMK A01 T01131035  RH  035%=      5-min Rain = 0
KWA1 171736Z 13003KT 11/M04 A3019 RMK A01 T01121037  RH  035%=      5-min Rain = 0
KWA1 171737Z 15002KT 11/M03 A3019 RMK A01 T01131029  RH  037%=      5-min Rain = 0
KWA1 171738Z 15001KT 12/M03 A3019 RMK A01 T01171026  RH  037%=      5-min Rain = 0
KWA1 171739Z 09000KT 12/M02 A3019 RMK A01 T01201023  RH  037%=      5-min Rain = 0
KWA1 171740Z 31001KT 12/M02 A3019 RMK A01 T01221022  RH  037%=      5-min Rain = 0
KWA1 171741Z 28001KT 12/M03 A3019 RMK A01 T01221028  RH  035%=      5-min Rain = 0
KWA1 171742Z 06000KT 12/M03 A3019 RMK A01 T01201025  RH  036%=      5-min Rain = 0
KWA1 171743Z 02003KT 12/M03 A3019 RMK A01 T01201029  RH  035%=      5-min Rain = 0
KWA1 171744Z 03004KT 12/M03 A3019 RMK A01 T01211028  RH  035%=      5-min Rain = 0
KWA1 171745Z 04003KT 12/M03 A3019 RMK A01 T01191034  RH  034%=      5-min Rain = 0
KWA1 171746Z 03004KT 12/M03 A3019 RMK A01 T01171033  RH  035%=      5-min Rain = 0
KWA1 171747Z 05002KT 12/M03 A3019 RMK A01 T01171034  RH  035%=      5-min Rain = 0
KWA1 171748Z 03003KT 12/M03 A3019 RMK A01 T01181033  RH  035%=      5-min Rain = 0
KWA1 171749Z 06001KT 12/M03 A3019 RMK A01 T01181034  RH  034%=      5-min Rain = 0
KWA1 171750Z 11002KT 12/M03 A3019 RMK A01 T01191033  RH  034%=      5-min Rain = 0
KWA1 171751Z 14001KT 12/M04 A3019 RMK A01 T01201037  RH  033%=      5-min Rain = 0
KWA1 171752Z 13002KT 12/M04 A3018 RMK A01 T01191037  RH  033%=      5-min Rain = 0
KWA1 171753Z 14001KT 12/M04 A3018 RMK A01 T01191036  RH  034%=      5-min Rain = 0
KWA1 171754Z 13000KT 12/M03 A3018 RMK A01 T01201033  RH  034%=      5-min Rain = 0
KWA1 171755Z 15000KT 12/M04 A3018 RMK A01 T01221036  RH  033%=      5-min Rain = 0
KWA1 171756Z 28001KT 12/M03 A3018 RMK A01 T01241034  RH  033%=      5-min Rain = 0
KWA1 171757Z 30002KT 13/M03 A3018 RMK A01 T01261030  RH  034%=      5-min Rain = 0
KWA1 171758Z 28002KT 13/M03 A3018 RMK A01 T01271030  RH  034%=      5-min Rain = 0
KWA1 171759Z 29002KT 13/M03 A3018 RMK A01 T01261033  RH  033%=      5-min Rain = 0
KWA1 171800Z 34004KT 13/M03 A3018 RMK A01 T01251031  RH  034%=      5-min Rain = 0
KWA1 171801Z 34001KT 12/M03 A3018 RMK A01 T01241034  RH  033%=      5-min Rain = 0
KWA1 171802Z 33003KT 12/M03 A3018 RMK A01 T01221034  RH  033%=      5-min Rain = 0
KWA1 171803Z 32004KT 12/M04 A3018 RMK A01 T01231041  RH  032%=      5-min Rain = 0
KWA1 171804Z 33003KT 12/M04 A3018 RMK A01 T01221041  RH  032%=      5-min Rain = 0
KWA1 171805Z 34005KT 12/M04 A3017 RMK A01 T01221038  RH  033%=      5-min Rain = 0
KWA1 171806Z 35004KT 12/M04 A3017 RMK A01 T01231035  RH  033%=      5-min Rain = 0
KWA1 171807Z 33004KT 12/M04 A3017 RMK A01 T01241036  RH  033%=      5-min Rain = 0
KWA1 171808Z 29002KT 12/M04 A3017 RMK A01 T01231040  RH  032%=      5-min Rain = 0
KWA1 171809Z 26002KT 12/M04 A3017 RMK A01 T01221038  RH  033%=      5-min Rain = 0
KWA1 171810Z 36002KT 12/M04 A3017 RMK A01 T01231036  RH  033%=      5-min Rain = 0
KWA1 171811Z 03005KT 13/M03 A3017 RMK A01 T01251034  RH  033%=      5-min Rain = 0
KWA1 171812Z 03004KT 13/M04 A3017 RMK A01 T01271039  RH  031%=      5-min Rain = 0
KWA1 171813Z 35004KT 13/M04 A3016 RMK A01 T01261039  RH  031%=      5-min Rain = 0
KWA1 171814Z 34003KT 13/M04 A3016 RMK A01 T01251039  RH  031%=      5-min Rain = 0
KWA1 171815Z 03005KT 13/M04 A3016 RMK A01 T01251037  RH  032%=      5-min Rain = 0
KWA1 171816Z 03006KT 13/M04 A3016 RMK A01 T01271037  RH  032%=      5-min Rain = 0
KWA1 171817Z 02004KT 13/M04 A3016 RMK A01 T01261039  RH  031%=      5-min Rain = 0
KWA1 171818Z 03003KT 13/M04 A3016 RMK A01 T01251040  RH  031%=      5-min Rain = 0
KWA1 171819Z 03003KT 12/M04 A3016 RMK A01 T01241041  RH  031%=      5-min Rain = 0
KWA1 171820Z 05002KT 12/M04 A3016 RMK A01 T01241039  RH  032%=      5-min Rain = 0
KWA1 171821Z 03001KT 13/M04 A3016 RMK A01 T01251038  RH  032%=      5-min Rain = 0
KWA1 171822Z 05001KT 13/M04 A3016 RMK A01 T01271041  RH  031%=      5-min Rain = 0
KWA1 171823Z 05000KT 13/M04 A3016 RMK A01 T01271042  RH  031%=      5-min Rain = 0
KWA1 171824Z 14001KT 13/M04 A3016 RMK A01 T01281041  RH  030%=      5-min Rain = 0
KWA1 171825Z 03001KT 13/M03 A3015 RMK A01 T01321033  RH  032%=      5-min Rain = 0
KWA1 171826Z 06002KT 14/M03 A3015 RMK A01 T01351032  RH  031%=      5-min Rain = 0
KWA1 171827Z 05002KT 14/M03 A3015 RMK A01 T01361033  RH  031%=      5-min Rain = 0
KWA1 171828Z 05001KT 13/M04 A3015 RMK A01 T01341037  RH  030%=      5-min Rain = 0
KWA1 171829Z 22000KT 13/M04 A3015 RMK A01 T01331038  RH  030%=      5-min Rain = 0
KWA1 171830Z 03001KT 13/M04 A3015 RMK A01 T01341035  RH  031%=      5-min Rain = 0
KWA1 171831Z 03004KT 14/M04 A3015 RMK A01 T01361035  RH  030%=      5-min Rain = 0
KWA1 171832Z 01005KT 13/M03 A3015 RMK A01 T01341032  RH  031%=      5-min Rain = 0
KWA1 171833Z 01003KT 13/M04 A3015 RMK A01 T01331036  RH  031%=      5-min Rain = 0
KWA1 171834Z 02006KT 13/M03 A3015 RMK A01 T01311034  RH  032%=      5-min Rain = 0
KWA1 171835Z 01003KT 13/M04 A3015 RMK A01 T01311037  RH  031%=      5-min Rain = 0
KWA1 171836Z 34002KT 13/M04 A3015 RMK A01 T01301036  RH  031%=      5-min Rain = 0
KWA1 171837Z 34003KT 13/M04 A3015 RMK A01 T01311036  RH  031%=      5-min Rain = 0
KWA1 171838Z 02003KT 13/M04 A3015 RMK A01 T01311038  RH  031%=      5-min Rain = 0
KWA1 171839Z 04005KT 13/M03 A3015 RMK A01 T01311031  RH  032%=      5-min Rain = 0
KWA1 171840Z 05004KT 13/M03 A3015 RMK A01 T01331033  RH  031%=      5-min Rain = 0
KWA1 171841Z 07004KT 13/M03 A3015 RMK A01 T01321034  RH  031%=      5-min Rain = 0
KWA1 171842Z 09004KT 13/M04 A3015 RMK A01 T01321035  RH  031%=      5-min Rain = 0
KWA1 171843Z 11002KT 13/M04 A3015 RMK A01 T01321037  RH  031%=      5-min Rain = 0
KWA1 171844Z 10003KT 13/M04 A3015 RMK A01 T01321036  RH  031%=      5-min Rain = 0
KWA1 171845Z 08003KT 13/M04 A3015 RMK A01 T01331035  RH  031%=      5-min Rain = 0
KWA1 171846Z 05006KT 13/M03 A3015 RMK A01 T01331034  RH  031%=      5-min Rain = 0
KWA1 171847Z 04005KT 13/M03 A3015 RMK A01 T01341033  RH  031%=      5-min Rain = 0
KWA1 171848Z 01003KT 13/M04 A3015 RMK A01 T01331036  RH  031%=      5-min Rain = 0
KWA1 171849Z 02006KT 13/M03 A3015 RMK A01 T01331032  RH  031%=      5-min Rain = 0
KWA1 171850Z 04006KT 13/M04 A3015 RMK A01 T01341035  RH  031%=      5-min Rain = 0
KWA1 171851Z 05004KT 13/M04 A3015 RMK A01 T01331037  RH  030%=      5-min Rain = 0
KWA1 171852Z 03001KT 13/M04 A3015 RMK A01 T01321037  RH  031%=      5-min Rain = 0
KWA1 171853Z 21000KT 13/M04 A3015 RMK A01 T01321036  RH  031%=      5-min Rain = 0
KWA1 171854Z 21000KT 13/M03 A3015 RMK A01 T01341032  RH  031%=      5-min Rain = 0
KWA1 171855Z 05000KT 14/M03 A3015 RMK A01 T01381028  RH  032%=      5-min Rain = 0
KWA1 171856Z 02001KT 14/M03 A3015 RMK A01 T01421028  RH  031%=      5-min Rain = 0
KWA1 171857Z 01006KT 14/M03 A3015 RMK A01 T01431032  RH  030%=      5-min Rain = 0
KWA1 171858Z 02006KT 14/M04 A3015 RMK A01 T01411037  RH  029%=      5-min Rain = 0
KWA1 171859Z 03005KT 14/M04 A3015 RMK A01 T01391038  RH  029%=      5-min Rain = 0
KWA1 171900Z 05003KT 14/M04 A3014 RMK A01 T01371039  RH  029%=      5-min Rain = 0
KWA1 171901Z 01005KT 14/M04 A3014 RMK A01 T01371035  RH  030%=      5-min Rain = 0
KWA1 171902Z 02004KT 14/M04 A3014 RMK A01 T01391039  RH  029%=      5-min Rain = 0
KWA1 171903Z 01003KT 14/M04 A3014 RMK A01 T01371042  RH  029%=      5-min Rain = 0
KWA1 171904Z 35004KT 14/M04 A3014 RMK A01 T01361038  RH  030%=      5-min Rain = 0
KWA1 171905Z 34004KT 14/M04 A3014 RMK A01 T01361043  RH  029%=      5-min Rain = 0
KWA1 171906Z 32002KT 14/M04 A3014 RMK A01 T01351044  RH  029%=      5-min Rain = 0
KWA1 171907Z 33001KT 13/M04 A3014 RMK A01 T01341042  RH  029%=      5-min Rain = 0
KWA1 171908Z 27001KT 14/M04 A3014 RMK A01 T01351044  RH  029%=      5-min Rain = 0
KWA1 171909Z 29002KT 14/M04 A3014 RMK A01 T01351044  RH  029%=      5-min Rain = 0
KWA1 171910Z 26002KT 14/M04 A3014 RMK A01 T01361042  RH  029%=      5-min Rain = 0
KWA1 171911Z 26002KT 14/M04 A3014 RMK A01 T01371042  RH  029%=      5-min Rain = 0
KWA1 171912Z 26001KT 14/M04 A3014 RMK A01 T01371044  RH  028%=      5-min Rain = 0
KWA1 171913Z 22001KT 14/M04 A3014 RMK A01 T01381038  RH  029%=      5-min Rain = 0
KWA1 171914Z 21001KT 14/M04 A3014 RMK A01 T01401042  RH  028%=      5-min Rain = 0
KWA1 171915Z 22001KT 14/M04 A3014 RMK A01 T01421035  RH  029%=      5-min Rain = 0
KWA1 171916Z 14000KT 15/M04 A3014 RMK A01 T01461035  RH  028%=      5-min Rain = 0
KWA1 171917Z 01002KT 15/M03 A3014 RMK A01 T01501033  RH  028%=      5-min Rain = 0
KWA1 171918Z 02004KT 15/M04 A3014 RMK A01 T01501039  RH  027%=      5-min Rain = 0
KWA1 171919Z 02003KT 15/M04 A3014 RMK A01 T01461041  RH  027%=      5-min Rain = 0
KWA1 171920Z 05003KT 14/M04 A3013 RMK A01 T01441042  RH  027%=      5-min Rain = 0
KWA1 171921Z 07003KT 14/M04 A3013 RMK A01 T01431042  RH  028%=      5-min Rain = 0
KWA1 171922Z 06003KT 14/M04 A3013 RMK A01 T01411043  RH  028%=      5-min Rain = 0
KWA1 171923Z 02005KT 14/M04 A3013 RMK A01 T01421038  RH  029%=      5-min Rain = 0
KWA1 171924Z 03006KT 14/M04 A3013 RMK A01 T01441036  RH  028%=      5-min Rain = 0
KWA1 171925Z 04006KT 15/M04 A3013 RMK A01 T01461037  RH  028%=      5-min Rain = 0
KWA1 171926Z 02006KT 15/M04 A3013 RMK A01 T01481039  RH  027%=      5-min Rain = 0
KWA1 171927Z 01005KT 15/M04 A3013 RMK A01 T01471041  RH  027%=      5-min Rain = 0
KWA1 171928Z 06003KT 14/M05 A3013 RMK A01 T01441045  RH  027%=      5-min Rain = 0
KWA1 171929Z 05004KT 14/M04 A3013 RMK A01 T01421044  RH  027%=      5-min Rain = 0
KWA1 171930Z 06003KT 14/M05 A3013 RMK A01 T01411045  RH  027%=      5-min Rain = 0
KWA1 171931Z 07001KT 14/M05 A3013 RMK A01 T01401046  RH  027%=      5-min Rain = 0
KWA1 171932Z 34001KT 14/M04 A3013 RMK A01 T01401043  RH  028%=      5-min Rain = 0
KWA1 171933Z 32003KT 14/M05 A3013 RMK A01 T01411046  RH  027%=      5-min Rain = 0
KWA1 171934Z 04004KT 14/M04 A3012 RMK A01 T01421042  RH  028%=      5-min Rain = 0
KWA1 171935Z 03004KT 14/M04 A3012 RMK A01 T01441044  RH  027%=      5-min Rain = 0
KWA1 171936Z 02004KT 14/M05 A3012 RMK A01 T01431047  RH  026%=      5-min Rain = 0
KWA1 171937Z 04002KT 14/M05 A3012 RMK A01 T01411049  RH  026%=      5-min Rain = 0
KWA1 171938Z 05002KT 14/M05 A3012 RMK A01 T01401050  RH  027%=      5-min Rain = 0
KWA1 171939Z 08001KT 14/M05 A3012 RMK A01 T01391050  RH  026%=      5-min Rain = 0
KWA1 171940Z 34002KT 14/M05 A3012 RMK A01 T01401047  RH  027%=      5-min Rain = 0
KWA1 171941Z 31002KT 14/M05 A3012 RMK A01 T01411048  RH  027%=      5-min Rain = 0
KWA1 171942Z 22000KT 14/M05 A3012 RMK A01 T01401048  RH  027%=      5-min Rain = 0
KWA1 171943Z 22001KT 14/M05 A3012 RMK A01 T01411047  RH  027%=      5-min Rain = 0
KWA1 171944Z 20002KT 14/M05 A3012 RMK A01 T01421048  RH  026%=      5-min Rain = 0
KWA1 171945Z 23001KT 14/M05 A3012 RMK A01 T01421047  RH  027%=      5-min Rain = 0
KWA1 171946Z 00002KT 14/M04 A3012 RMK A01 T01441044  RH  027%=      5-min Rain = 0
KWA1 171947Z 35004KT 15/M05 A3012 RMK A01 T01451045  RH  027%=      5-min Rain = 0
KWA1 171948Z 35004KT 15/M04 A3012 RMK A01 T01451043  RH  027%=      5-min Rain = 0
KWA1 171949Z 35003KT 14/M05 A3012 RMK A01 T01441045  RH  027%=      5-min Rain = 0
KWA1 171950Z 36005KT 15/M04 A3012 RMK A01 T01451044  RH  027%=      5-min Rain = 0
KWA1 171951Z 35004KT 15/M04 A3012 RMK A01 T01451044  RH  027%=      5-min Rain = 0
KWA1 171952Z 34004KT 15/M05 A3012 RMK A01 T01451047  RH  026%=      5-min Rain = 0
KWA1 171953Z 32002KT 14/M05 A3012 RMK A01 T01431047  RH  027%=      5-min Rain = 0
KWA1 171954Z 31002KT 14/M04 A3012 RMK A01 T01421044  RH  027%=      5-min Rain = 0
KWA1 171955Z 33004KT 14/M04 A3012 RMK A01 T01431044  RH  027%=      5-min Rain = 0
KWA1 171956Z 33003KT 14/M05 A3012 RMK A01 T01441046  RH  027%=      5-min Rain = 0
KWA1 171957Z 31002KT 14/M05 A3012 RMK A01 T01431047  RH  027%=      5-min Rain = 0
KWA1 171958Z 33004KT 14/M05 A3011 RMK A01 T01421045  RH  027%=      5-min Rain = 0
KWA1 171959Z 31004KT 14/M05 A3011 RMK A01 T01441045  RH  027%=      5-min Rain = 0
KWA1 172000Z 33004KT 14/M05 A3011 RMK A01 T01431045  RH  027%=      5-min Rain = 0
KWA1 172001Z 34004KT 14/M05 A3011 RMK A01 T01441046  RH  027%=      5-min Rain = 0
KWA1 172002Z 33005KT 14/M05 A3011 RMK A01 T01431047  RH  026%=      5-min Rain = 0
KWA1 172003Z 34004KT 14/M05 A3011 RMK A01 T01431046  RH  027%=      5-min Rain = 0
KWA1 172004Z 34003KT 14/M05 A3011 RMK A01 T01431048  RH  026%=      5-min Rain = 0
KWA1 172005Z 35003KT 14/M05 A3011 RMK A01 T01431048  RH  026%=      5-min Rain = 0
KWA1 172006Z 01002KT 14/M05 A3011 RMK A01 T01431045  RH  027%=      5-min Rain = 0
KWA1 172007Z 03002KT 14/M05 A3011 RMK A01 T01441048  RH  026%=      5-min Rain = 0
KWA1 172008Z 31002KT 15/M04 A3011 RMK A01 T01461041  RH  027%=      5-min Rain = 0
KWA1 172009Z 30003KT 15/M04 A3011 RMK A01 T01481044  RH  026%=      5-min Rain = 0
KWA1 172010Z 30002KT 15/M05 A3011 RMK A01 T01481046  RH  026%=      5-min Rain = 0
KWA1 172011Z 31002KT 15/M05 A3011 RMK A01 T01471048  RH  026%=      5-min Rain = 0
KWA1 172012Z 35002KT 15/M05 A3011 RMK A01 T01461045  RH  026%=      5-min Rain = 0
KWA1 172013Z 06003KT 15/M04 A3011 RMK A01 T01481043  RH  026%=      5-min Rain = 0
KWA1 172014Z 03005KT 15/M04 A3012 RMK A01 T01501040  RH  027%=      5-min Rain = 0
KWA1 172015Z 02006KT 15/M04 A3011 RMK A01 T01511043  RH  026%=      5-min Rain = 0
KWA1 172016Z 03005KT 15/M04 A3011 RMK A01 T01511043  RH  026%=      5-min Rain = 0
KWA1 172017Z 05004KT 15/M05 A3011 RMK A01 T01501045  RH  026%=      5-min Rain = 0
KWA1 172018Z 02004KT 15/M04 A3011 RMK A01 T01501041  RH  026%=      5-min Rain = 0
KWA1 172019Z 02002KT 15/M05 A3011 RMK A01 T01511047  RH  025%=      5-min Rain = 0
KWA1 172020Z 03002KT 15/M05 A3011 RMK A01 T01491048  RH  025%=      5-min Rain = 0
KWA1 172021Z 05003KT 15/M05 A3011 RMK A01 T01481047  RH  026%=      5-min Rain = 0
KWA1 172022Z 07002KT 15/M05 A3011 RMK A01 T01461050  RH  025%=      5-min Rain = 0
KWA1 172023Z 11001KT 15/M05 A3011 RMK A01 T01451050  RH  026%=      5-min Rain = 0
KWA1 172024Z 04004KT 14/M05 A3011 RMK A01 T01441047  RH  026%=      5-min Rain = 0
KWA1 172025Z 04004KT 15/M05 A3011 RMK A01 T01451047  RH  026%=      5-min Rain = 0
KWA1 172026Z 04004KT 15/M05 A3011 RMK A01 T01461046  RH  026%=      5-min Rain = 0
KWA1 172027Z 03001KT 15/M05 A3011 RMK A01 T01461048  RH  026%=      5-min Rain = 0
KWA1 172028Z 02001KT 15/M05 A301 RMK A01 T01461049  RH  026%=      5-min Rain = 0
KWA1 172029Z 35002KT 15/M05 A301 RMK A01 T01471048  RH  026%=      5-min Rain = 0
KWA1 172030Z 36002KT 15/M05 A301 RMK A01 T01471047  RH  026%=      5-min Rain = 0
KWA1 172031Z 03002KT 15/M05 A301 RMK A01 T01471047  RH  026%=      5-min Rain = 0
KWA1 172032Z 06000KT 15/M05 A301 RMK A01 T01471046  RH  026%=      5-min Rain = 0
KWA1 172033Z 04002KT 15/M04 A301 RMK A01 T01481044  RH  026%=      5-min Rain = 0
KWA1 172034Z 04002KT 15/M04 A301 RMK A01 T01501043  RH  026%=      5-min Rain = 0
KWA1 172035Z 04001KT 15/M05 A301 RMK A01 T01501048  RH  025%=      5-min Rain = 0
KWA1 172036Z 06001KT 15/M05 A301 RMK A01 T01491049  RH  025%=      5-min Rain = 0
KWA1 172037Z 05000KT 15/M05 A301 RMK A01 T01491048  RH  025%=      5-min Rain = 0
KWA1 172038Z 05000KT 15/M05 A301 RMK A01 T01501046  RH  026%=      5-min Rain = 0
KWA1 172039Z 09001KT 15/M05 A301 RMK A01 T01511048  RH  025%=      5-min Rain = 0
KWA1 172040Z 13000KT 15/M05 A301 RMK A01 T01501049  RH  025%=      5-min Rain = 0
KWA1 172041Z 13001KT 15/M05 A301 RMK A01 T01491047  RH  026%=      5-min Rain = 0
KWA1 172042Z 15002KT 15/M05 A301 RMK A01 T01491045  RH  026%=      5-min Rain = 0
KWA1 172043Z 20002KT 15/M04 A301 RMK A01 T01511044  RH  026%=      5-min Rain = 0
KWA1 172044Z 19002KT 15/M05 A301 RMK A01 T01521045  RH  025%=      5-min Rain = 0
KWA1 172045Z 19001KT 15/M05 A301 RMK A01 T01521048  RH  025%=      5-min Rain = 0
KWA1 172046Z 22001KT 15/M05 A301 RMK A01 T01511047  RH  025%=      5-min Rain = 0
KWA1 172047Z 17002KT 15/M05 A301 RMK A01 T01521046  RH  025%=      5-min Rain = 0
KWA1 172048Z 17002KT 15/M04 A301 RMK A01 T01531043  RH  026%=      5-min Rain = 0
KWA1 172049Z 18001KT 16/M04 A301 RMK A01 T01551042  RH  026%=      5-min Rain = 0
KWA1 172050Z 22001KT 16/M04 A301 RMK A01 T01551044  RH  025%=      5-min Rain = 0
KWA1 172051Z 25002KT 16/M05 A301 RMK A01 T01561047  RH  024%=      5-min Rain = 0
KWA1 172052Z 24001KT 16/M04 A301 RMK A01 T01551044  RH  025%=      5-min Rain = 0
KWA1 172053Z 23000KT 16/M05 A301 RMK A01 T01561046  RH  025%=      5-min Rain = 0
KWA1 172054Z 24002KT 16/M04 A301 RMK A01 T01551039  RH  026%=      5-min Rain = 0
KWA1 172055Z 23003KT 16/M04 A301 RMK A01 T01551044  RH  025%=      5-min Rain = 0
KWA1 172056Z 24003KT 15/M05 A301 RMK A01 T01521046  RH  025%=      5-min Rain = 0
KWA1 172057Z 21003KT 15/M04 A301 RMK A01 T01521041  RH  026%=      5-min Rain = 0
KWA1 172058Z 19003KT 15/M04 A301 RMK A01 T01531042  RH  026%=      5-min Rain = 0
KWA1 172059Z 23001KT 15/M05 A301 RMK A01 T01531046  RH  025%=      5-min Rain = 0
KWA1 172100Z 32001KT 15/M05 A301 RMK A01 T01521046  RH  025%=      5-min Rain = 0
KWA1 172101Z 17001KT 15/M04 A301 RMK A01 T01531037  RH  027%=      5-min Rain = 0
KWA1 172102Z 22001KT 16/M04 A301 RMK A01 T01561042  RH  025%=      5-min Rain = 0
KWA1 172103Z 29001KT 16/M05 A301 RMK A01 T01551046  RH  025%=      5-min Rain = 0
KWA1 172104Z 20000KT 16/M05 A301 RMK A01 T01551045  RH  025%=      5-min Rain = 0
KWA1 172105Z 15001KT 16/M05 A301 RMK A01 T01551047  RH  025%=      5-min Rain = 0
KWA1 172106Z 15002KT 15/M05 A301 RMK A01 T01531047  RH  025%=      5-min Rain = 0
KWA1 172107Z 17002KT 15/M05 A301 RMK A01 T01511047  RH  025%=      5-min Rain = 0
KWA1 172108Z 18002KT 15/M05 A3009 RMK A01 T01511045  RH  026%=      5-min Rain = 0
KWA1 172109Z 16002KT 15/M05 A3009 RMK A01 T01521046  RH  025%=      5-min Rain = 0
KWA1 172110Z 15003KT 15/M04 A3009 RMK A01 T01531043  RH  026%=      5-min Rain = 0
KWA1 172111Z 13003KT 15/M04 A3009 RMK A01 T01541044  RH  025%=      5-min Rain = 0
KWA1 172112Z 12004KT 15/M05 A3009 RMK A01 T01521047  RH  025%=      5-min Rain = 0
KWA1 172113Z 12003KT 15/M04 A3009 RMK A01 T01511044  RH  026%=      5-min Rain = 0
KWA1 172114Z 11002KT 15/M04 A3009 RMK A01 T01521043  RH  026%=      5-min Rain = 0
KWA1 172115Z 17001KT 15/M04 A3009 RMK A01 T01531042  RH  026%=      5-min Rain = 0
KWA1 172116Z 18001KT 15/M05 A3009 RMK A01 T01541045  RH  025%=      5-min Rain = 0
KWA1 172117Z 07000KT 16/M05 A3009 RMK A01 T01551046  RH  025%=      5-min Rain = 0
KWA1 172118Z 13000KT 16/M04 A3009 RMK A01 T01561043  RH  025%=      5-min Rain = 0
KWA1 172119Z 14002KT 16/M04 A3009 RMK A01 T01571041  RH  025%=      5-min Rain = 0
KWA1 172120Z 14002KT 16/M04 A3009 RMK A01 T01581040  RH  025%=      5-min Rain = 0
KWA1 172121Z 12002KT 16/M04 A3009 RMK A01 T01581044  RH  025%=      5-min Rain = 0
KWA1 172122Z 15002KT 16/M05 A3009 RMK A01 T01571046  RH  025%=      5-min Rain = 0
KWA1 172123Z 18003KT 16/M05 A3009 RMK A01 T01561045  RH  025%=      5-min Rain = 0
KWA1 172124Z 17001KT 16/M04 A3009 RMK A01 T01571038  RH  026%=      5-min Rain = 0
KWA1 172125Z 22000KT 16/M04 A3009 RMK A01 T01591043  RH  025%=      5-min Rain = 0
KWA1 172126Z 11000KT 16/M04 A3009 RMK A01 T01611042  RH  025%=      5-min Rain = 0
KWA1 172127Z 09002KT 16/M04 A3009 RMK A01 T01621041  RH  024%=      5-min Rain = 0
KWA1 172128Z 09004KT 16/M04 A3009 RMK A01 T01621040  RH  025%=      5-min Rain = 0
KWA1 172129Z 10004KT 16/M05 A3009 RMK A01 T01601045  RH  024%=      5-min Rain = 0
KWA1 172130Z 10003KT 16/M05 A3009 RMK A01 T01571048  RH  024%=      5-min Rain = 0
KWA1 172131Z 13003KT 16/M04 A3009 RMK A01 T01551042  RH  025%=      5-min Rain = 0
KWA1 172132Z 13004KT 16/M05 A3009 RMK A01 T01561045  RH  025%=      5-min Rain = 0
KWA1 172133Z 11003KT 16/M05 A3009 RMK A01 T01551046  RH  025%=      5-min Rain = 0
KWA1 172134Z 12002KT 16/M05 A3009 RMK A01 T01551045  RH  025%=      5-min Rain = 0
KWA1 172135Z 12001KT 16/M05 A3009 RMK A01 T01551046  RH  025%=      5-min Rain = 0
KWA1 172136Z 13001KT 16/M05 A3009 RMK A01 T01551045  RH  025%=      5-min Rain = 0
KWA1 172137Z 10002KT 16/M04 A3009 RMK A01 T01581041  RH  025%=      5-min Rain = 0
KWA1 172138Z 09003KT 16/M04 A3009 RMK A01 T01591043  RH  025%=      5-min Rain = 0
KWA1 172139Z 13002KT 16/M04 A3009 RMK A01 T01581039  RH  026%=      5-min Rain = 0
KWA1 172140Z 18002KT 16/M04 A3009 RMK A01 T01591042  RH  025%=      5-min Rain = 0
KWA1 172141Z 18002KT 16/M04 A3009 RMK A01 T01591042  RH  025%=      5-min Rain = 0
KWA1 172142Z 20002KT 16/M05 A3009 RMK A01 T01581045  RH  024%=      5-min Rain = 0
KWA1 172143Z 22002KT 16/M05 A3009 RMK A01 T01571045  RH  025%=      5-min Rain = 0
KWA1 172144Z 22001KT 16/M04 A3009 RMK A01 T01571044  RH  025%=      5-min Rain = 0
KWA1 172145Z 32002KT 16/M04 A3009 RMK A01 T01581043  RH  025%=      5-min Rain = 0
KWA1 172146Z 33005KT 16/M04 A3009 RMK A01 T01581041  RH  025%=      5-min Rain = 0
KWA1 172147Z 32005KT 16/M04 A3009 RMK A01 T01571043  RH  025%=      5-min Rain = 0
KWA1 172148Z 33005KT 16/M04 A3009 RMK A01 T01551043  RH  025%=      5-min Rain = 0
KWA1 172149Z 35004KT 15/M04 A3009 RMK A01 T01541044  RH  025%=      5-min Rain = 0
KWA1 172150Z 34004KT 15/M04 A3009 RMK A01 T01531043  RH  026%=      5-min Rain = 0
KWA1 172151Z 33005KT 15/M04 A3009 RMK A01 T01531042  RH  026%=      5-min Rain = 0
KWA1 172152Z 33004KT 15/M04 A3009 RMK A01 T01541042  RH  026%=      5-min Rain = 0
KWA1 172153Z 32003KT 15/M04 A3009 RMK A01 T01541042  RH  026%=      5-min Rain = 0
KWA1 172154Z 35004KT 16/M04 A3009 RMK A01 T01551041  RH  026%=      5-min Rain = 0
KWA1 172155Z 35004KT 16/M04 A3009 RMK A01 T01561043  RH  025%=      5-min Rain = 0
KWA1 172156Z 01003KT 16/M04 A3009 RMK A01 T01551042  RH  025%=      5-min Rain = 0
KWA1 172157Z 03003KT 16/M04 A3009 RMK A01 T01561040  RH  026%=      5-min Rain = 0
KWA1 172158Z 04003KT 16/M04 A3009 RMK A01 T01571042  RH  025%=      5-min Rain = 0
KWA1 172159Z 03003KT 16/M04 A3009 RMK A01 T01561043  RH  025%=      5-min Rain = 0
KWA1 172200Z 02003KT 16/M04 A3009 RMK A01 T01561042  RH  025%=      5-min Rain = 0
KWA1 172201Z 02003KT 16/M04 A3009 RMK A01 T01561042  RH  025%=      5-min Rain = 0
KWA1 172202Z 01004KT 16/M04 A3009 RMK A01 T01561042  RH  025%=      5-min Rain = 0
KWA1 172203Z 00005KT 16/M04 A3009 RMK A01 T01561044  RH  025%=      5-min Rain = 0
KWA1 172204Z 01003KT 16/M05 A3009 RMK A01 T01551045  RH  025%=      5-min Rain = 0
KWA1 172205Z 00003KT 15/M05 A3009 RMK A01 T01531046  RH  025%=      5-min Rain = 0
KWA1 172206Z 01002KT 15/M05 A3009 RMK A01 T01521046  RH  025%=      5-min Rain = 0
KWA1 172207Z 02001KT 15/M04 A3009 RMK A01 T01531044  RH  026%=      5-min Rain = 0
KWA1 172208Z 35002KT 15/M05 A3009 RMK A01 T01531045  RH  025%=      5-min Rain = 0
KWA1 172209Z 34002KT 15/M05 A3009 RMK A01 T01541045  RH  025%=      5-min Rain = 0
KWA1 172210Z 32002KT 15/M05 A3009 RMK A01 T01541046  RH  025%=      5-min Rain = 0
KWA1 172211Z 31001KT 16/M05 A3009 RMK A01 T01551045  RH  025%=      5-min Rain = 0
KWA1 172212Z 30000KT 16/M04 A3009 RMK A01 T01561043  RH  025%=      5-min Rain = 0
KWA1 172213Z 04002KT 16/M04 A3009 RMK A01 T01571043  RH  025%=      5-min Rain = 0
KWA1 172214Z 04004KT 16/M04 A3009 RMK A01 T01581042  RH  025%=      5-min Rain = 0
KWA1 172215Z 05003KT 16/M04 A3009 RMK A01 T01581041  RH  025%=      5-min Rain = 0
KWA1 172216Z 04003KT 16/M04 A3009 RMK A01 T01581041  RH  025%=      5-min Rain = 0
KWA1 172217Z 05003KT 16/M04 A3009 RMK A01 T01581041  RH  025%=      5-min Rain = 0
KWA1 172218Z 05001KT 16/M04 A3009 RMK A01 T01581043  RH  025%=      5-min Rain = 0
KWA1 172219Z 05002KT 16/M04 A3009 RMK A01 T01571044  RH  025%=      5-min Rain = 0
KWA1 172220Z 06002KT 16/M04 A3009 RMK A01 T01571041  RH  025%=      5-min Rain = 0
KWA1 172221Z 07002KT 16/M04 A3009 RMK A01 T01571044  RH  025%=      5-min Rain = 0
KWA1 172222Z 07002KT 16/M04 A3009 RMK A01 T01571043  RH  025%=      5-min Rain = 0
KWA1 172223Z 09001KT 16/M04 A3009 RMK A01 T01581043  RH  025%=      5-min Rain = 0
KWA1 172224Z 02002KT 16/M04 A3009 RMK A01 T01581044  RH  025%=      5-min Rain = 0
KWA1 172225Z 01003KT 16/M04 A3009 RMK A01 T01581043  RH  025%=      5-min Rain = 0
KWA1 172226Z 36002KT 16/M04 A3009 RMK A01 T01581043  RH  025%=      5-min Rain = 0
KWA1 172227Z 03003KT 16/M04 A3009 RMK A01 T01581044  RH  025%=      5-min Rain = 0
KWA1 172228Z 04003KT 16/M04 A3009 RMK A01 T01561043  RH  025%=      5-min Rain = 0
KWA1 172229Z 06003KT 16/M04 A3009 RMK A01 T01561043  RH  025%=      5-min Rain = 0
KWA1 172230Z 06002KT 16/M05 A3009 RMK A01 T01551045  RH  025%=      5-min Rain = 0
KWA1 172231Z 03002KT 16/M04 A3009 RMK A01 T01551044  RH  025%=      5-min Rain = 0
KWA1 172232Z 33004KT 16/M04 A3009 RMK A01 T01561040  RH  026%=      5-min Rain = 0
KWA1 172233Z 34004KT 16/M04 A3009 RMK A01 T01561042  RH  025%=      5-min Rain = 0
KWA1 172234Z 34005KT 16/M04 A3009 RMK A01 T01561042  RH  025%=      5-min Rain = 0
KWA1 172235Z 34005KT 16/M04 A3009 RMK A01 T01561042  RH  025%=      5-min Rain = 0
KWA1 172236Z 33005KT 16/M04 A3009 RMK A01 T01551041  RH  026%=      5-min Rain = 0
KWA1 172237Z 33004KT 16/M04 A3009 RMK A01 T01551041  RH  026%=      5-min Rain = 0
KWA1 172238Z 33003KT 16/M04 A3009 RMK A01 T01561041  RH  026%=      5-min Rain = 0
KWA1 172239Z 35003KT 16/M04 A3009 RMK A01 T01571039  RH  026%=      5-min Rain = 0
KWA1 172240Z 36003KT 16/M04 A3009 RMK A01 T01571041  RH  025%=      5-min Rain = 0
KWA1 172241Z 34003KT 16/M04 A3009 RMK A01 T01571042  RH  025%=      5-min Rain = 0
KWA1 172242Z 34003KT 16/M04 A3009 RMK A01 T01561041  RH  025%=      5-min Rain = 0
KWA1 172243Z 34003KT 16/M04 A3009 RMK A01 T01561041  RH  025%=      5-min Rain = 0
KWA1 172244Z 35004KT 16/M04 A3009 RMK A01 T01551043  RH  025%=      5-min Rain = 0
KWA1 172245Z 34003KT 16/M04 A3009 RMK A01 T01551043  RH  025%=      5-min Rain = 0
KWA1 172246Z 35003KT 15/M04 A3009 RMK A01 T01541043  RH  025%=      5-min Rain = 0
KWA1 172247Z 35003KT 15/M04 A3009 RMK A01 T01541043  RH  025%=      5-min Rain = 0
KWA1 172248Z 35003KT 15/M04 A3009 RMK A01 T01541042  RH  026%=      5-min Rain = 0
KWA1 172249Z 34003KT 15/M04 A3009 RMK A01 T01541042  RH  025%=      5-min Rain = 0
KWA1 172250Z 33002KT 15/M04 A3009 RMK A01 T01541043  RH  025%=      5-min Rain = 0
KWA1 172251Z 34002KT 15/M04 A3009 RMK A01 T01541041  RH  026%=      5-min Rain = 0
KWA1 172252Z 36003KT 16/M04 A3009 RMK A01 T01551042  RH  026%=      5-min Rain = 0
KWA1 172253Z 01004KT 16/M04 A3009 RMK A01 T01551040  RH  026%=      5-min Rain = 0
KWA1 172254Z 00004KT 16/M04 A3009 RMK A01 T01551041  RH  026%=      5-min Rain = 0
KWA1 172255Z 35003KT 16/M04 A3009 RMK A01 T01551040  RH  026%=      5-min Rain = 0
KWA1 172256Z 01004KT 16/M04 A3009 RMK A01 T01561039  RH  026%=      5-min Rain = 0
KWA1 172257Z 01003KT 16/M04 A3009 RMK A01 T01551041  RH  026%=      5-min Rain = 0
KWA1 172258Z 01004KT 16/M04 A3009 RMK A01 T01551041  RH  026%=      5-min Rain = 0
KWA1 172259Z 36003KT 16/M04 A3009 RMK A01 T01551042  RH  025%=      5-min Rain = 0
KWA1 172300Z 35003KT 15/M04 A3009 RMK A01 T01541042  RH  026%=      5-min Rain = 0
KWA1 172301Z 04007KT 15/M04 A3009 RMK A01 T01541042  RH  026%=      5-min Rain = 0
KWA1 172302Z 05004KT 15/M04 A3009 RMK A01 T01541041  RH  026%=      5-min Rain = 0
KWA1 172303Z 02004KT 15/M04 A3009 RMK A01 T01541040  RH  026%=      5-min Rain = 0
KWA1 172304Z 02004KT 15/M04 A3009 RMK A01 T01541041  RH  026%=      5-min Rain = 0
KWA1 172305Z 02003KT 15/M04 A3009 RMK A01 T01541042  RH  026%=      5-min Rain = 0
KWA1 172306Z 02003KT 15/M04 A3009 RMK A01 T01541040  RH  026%=      5-min Rain = 0
KWA1 172307Z 04004KT 15/M04 A3009 RMK A01 T01541040  RH  026%=      5-min Rain = 0
KWA1 172308Z 03005KT 15/M04 A3009 RMK A01 T01541039  RH  026%=      5-min Rain = 0
KWA1 172309Z 03005KT 16/M04 A3009 RMK A01 T01551038  RH  026%=      5-min Rain = 0
KWA1 172310Z 02005KT 15/M04 A3009 RMK A01 T01541040  RH  026%=      5-min Rain = 0
KWA1 172311Z 02004KT 15/M04 A3009 RMK A01 T01531042  RH  026%=      5-min Rain = 0
KWA1 172312Z 03004KT 15/M04 A3009 RMK A01 T01531040  RH  026%=      5-min Rain = 0
KWA1 172313Z 03004KT 15/M04 A3009 RMK A01 T01531040  RH  026%=      5-min Rain = 0
KWA1 172314Z 03003KT 15/M04 A3009 RMK A01 T01521041  RH  026%=      5-min Rain = 0
KWA1 172315Z 03005KT 15/M04 A3009 RMK A01 T01521040  RH  026%=      5-min Rain = 0
KWA1 172316Z 03005KT 15/M04 A3009 RMK A01 T01521040  RH  027%=      5-min Rain = 0
KWA1 172317Z 03005KT 15/M04 A3009 RMK A01 T01511040  RH  027%=      5-min Rain = 0
KWA1 172318Z 03005KT 15/M04 A3009 RMK A01 T01511041  RH  026%=      5-min Rain = 0
KWA1 172319Z 03005KT 15/M04 A3009 RMK A01 T01501041  RH  027%=      5-min Rain = 0
KWA1 172320Z 03004KT 15/M04 A3009 RMK A01 T01491042  RH  026%=      5-min Rain = 0
KWA1 172321Z 02003KT 15/M04 A3009 RMK A01 T01491040  RH  027%=      5-min Rain = 0
KWA1 172322Z 02004KT 15/M04 A3009 RMK A01 T01481039  RH  027%=      5-min Rain = 0
KWA1 172323Z 02005KT 15/M04 A3009 RMK A01 T01471040  RH  027%=      5-min Rain = 0
KWA1 172324Z 02005KT 15/M04 A3009 RMK A01 T01461040  RH  027%=      5-min Rain = 0
KWA1 172325Z 02005KT 15/M04 A3009 RMK A01 T01451040  RH  028%=      5-min Rain = 0
KWA1 172326Z 02004KT 14/M04 A3009 RMK A01 T01441039  RH  028%=      5-min Rain = 0
KWA1 172327Z 02005KT 14/M04 A3009 RMK A01 T01431039  RH  028%=      5-min Rain = 0
KWA1 172328Z 02004KT 14/M04 A3009 RMK A01 T01431039  RH  028%=      5-min Rain = 0
KWA1 172329Z 02004KT 14/M04 A3009 RMK A01 T01411039  RH  028%=      5-min Rain = 0
KWA1 172330Z 02005KT 14/M04 A3009 RMK A01 T01411039  RH  029%=      5-min Rain = 0
KWA1 172331Z 02005KT 14/M04 A3009 RMK A01 T01401039  RH  029%=      5-min Rain = 0
KWA1 172332Z 02005KT 14/M04 A3009 RMK A01 T01391039  RH  029%=      5-min Rain = 0
KWA1 172333Z 03006KT 14/M04 A3009 RMK A01 T01371039  RH  029%=      5-min Rain = 0
KWA1 172334Z 03006KT 14/M04 A3009 RMK A01 T01371039  RH  029%=      5-min Rain = 0
KWA1 172335Z 03006KT 14/M04 A3009 RMK A01 T01361039  RH  029%=      5-min Rain = 0
KWA1 172336Z 04006KT 14/M04 A3009 RMK A01 T01351039  RH  029%=      5-min Rain = 0
KWA1 172337Z 03006KT 14/M04 A3009 RMK A01 T01351039  RH  030%=      5-min Rain = 0
KWA1 172338Z 03006KT 13/M04 A3009 RMK A01 T01341039  RH  030%=      5-min Rain = 0
KWA1 172339Z 03006KT 13/M04 A3009 RMK A01 T01331039  RH  030%=      5-min Rain = 0
KWA1 172340Z 03006KT 13/M04 A3009 RMK A01 T01321039  RH  030%=      5-min Rain = 0
KWA1 172341Z 03006KT 13/M04 A3009 RMK A01 T01311039  RH  030%=      5-min Rain = 0
KWA1 172342Z 03006KT 13/M04 A3009 RMK A01 T01301039  RH  031%=      5-min Rain = 0
KWA1 172343Z 03006KT 13/M04 A3009 RMK A01 T01291039  RH  031%=      5-min Rain = 0
KWA1 172344Z 02006KT 13/M04 A3009 RMK A01 T01281039  RH  031%=      5-min Rain = 0
KWA1 172345Z 02005KT 13/M04 A3009 RMK A01 T01271038  RH  031%=      5-min Rain = 0
KWA1 172346Z 02005KT 13/M04 A3009 RMK A01 T01261039  RH  032%=      5-min Rain = 0
KWA1 172347Z 02005KT 13/M04 A3009 RMK A01 T01261038  RH  032%=      5-min Rain = 0
KWA1 172348Z 02006KT 13/M04 A3009 RMK A01 T01251039  RH  032%=      5-min Rain = 0
KWA1 172349Z 02006KT 12/M04 A3009 RMK A01 T01241039  RH  032%=      5-min Rain = 0
KWA1 172350Z 03006KT 12/M04 A3009 RMK A01 T01241039  RH  032%=      5-min Rain = 0
KWA1 172351Z 03006KT 12/M04 A3009 RMK A01 T01231040  RH  032%=      5-min Rain = 0
KWA1 172352Z 03006KT 12/M04 A3009 RMK A01 T01221040  RH  032%=      5-min Rain = 0
KWA1 172353Z 03006KT 12/M04 A3009 RMK A01 T01201041  RH  032%=      5-min Rain = 0
KWA1 172354Z 04006KT 12/M04 A3009 RMK A01 T01191041  RH  032%=      5-min Rain = 0
KWA1 172355Z 04006KT 12/M04 A3009 RMK A01 T01191041  RH  033%=      5-min Rain = 0
KWA1 172356Z 04006KT 12/M04 A3009 RMK A01 T01181040  RH  033%=      5-min Rain = 0
KWA1 172357Z 04005KT 12/M04 A3009 RMK A01 T01181041  RH  033%=      5-min Rain = 0
KWA1 172358Z 04005KT 12/M04 A3009 RMK A01 T01171041  RH  033%=      5-min Rain = 0
KWA1 172359Z 04005KT 12/M04 A3009 RMK A01 T01151041  RH  033%=      5-min Rain = 0
KWA1 180000Z 05005KT 11/M04 A3009 RMK A01 T01121041  RH  034%=      5-min Rain = 0
KWA1 180001Z 05006KT 11/M04 A3009 RMK A01 T01101042  RH  034%=      5-min Rain = 0
KWA1 180002Z 05006KT 11/M04 A3009 RMK A01 T01091042  RH  034%=      5-min Rain = 0
KWA1 180003Z 05006KT 11/M04 A3009 RMK A01 T01071043  RH  035%=      5-min Rain = 0
KWA1 180004Z 05006KT 11/M04 A3009 RMK A01 T01061043  RH  035%=      5-min Rain = 0
KWA1 180005Z 04007KT 11/M04 A3009 RMK A01 T01061043  RH  035%=      5-min Rain = 0
KWA1 180006Z 04007KT 11/M04 A3009 RMK A01 T01061042  RH  035%=      5-min Rain = 0
KWA1 180007Z 04007KT 11/M04 A3009 RMK A01 T01061042  RH  035%=      5-min Rain = 0
KWA1 180008Z 04007KT 11/M04 A3009 RMK A01 T01051042  RH  035%=      5-min Rain = 0
KWA1 180009Z 04007KT 10/M04 A3009 RMK A01 T01041043  RH  035%=      5-min Rain = 0
KWA1 180010Z 05007KT 10/M04 A3009 RMK A01 T01041042  RH  035%=      5-min Rain = 0
KWA1 180011Z 05006KT 10/M04 A3009 RMK A01 T01031042  RH  036%=      5-min Rain = 0
KWA1 180012Z 06006KT 10/M04 A3009 RMK A01 T01031041  RH  036%=      5-min Rain = 0
KWA1 180013Z 06007KT 10/M04 A3009 RMK A01 T01021040  RH  036%=      5-min Rain = 0
KWA1 180014Z 06007KT 10/M04 A3009 RMK A01 T01011041  RH  037%=      5-min Rain = 0
KWA1 180015Z 06007KT 10/M04 A3009 RMK A01 T01001041  RH  037%=      5-min Rain = 0
KWA1 180016Z 06007KT 10/M04 A3009 RMK A01 T00991041  RH  037%=      5-min Rain = 0
KWA1 180017Z 06007KT 10/M04 A3009 RMK A01 T00991042  RH  037%=      5-min Rain = 0
KWA1 180018Z 06007KT 10/M04 A3009 RMK A01 T00991043  RH  037%=      5-min Rain = 0
KWA1 180019Z 06007KT 10/M04 A3009 RMK A01 T00991043  RH  037%=      5-min Rain = 0
KWA1 180020Z 06007KT 10/M04 A3009 RMK A01 T00981043  RH  037%=      5-min Rain = 0
KWA1 180021Z 06006KT 10/M04 A3009 RMK A01 T00971042  RH  037%=      5-min Rain = 0
KWA1 180022Z 06006KT 10/M04 A3009 RMK A01 T00961042  RH  038%=      5-min Rain = 0
KWA1 180023Z 06006KT 09/M04 A3009 RMK A01 T00941042  RH  038%=      5-min Rain = 0
KWA1 180024Z 06006KT 09/M04 A3009 RMK A01 T00931041  RH  039%=      5-min Rain = 0
KWA1 180025Z 06006KT 09/M04 A3009 RMK A01 T00921042  RH  039%=      5-min Rain = 0
KWA1 180026Z 06006KT 09/M04 A3009 RMK A01 T00911042  RH  039%=      5-min Rain = 0
KWA1 180027Z 06006KT 09/M04 A3009 RMK A01 T00921042  RH  039%=      5-min Rain = 0
KWA1 180028Z 06006KT 09/M04 A3009 RMK A01 T00921042  RH  038%=      5-min Rain = 0
KWA1 180029Z 06006KT 09/M04 A3009 RMK A01 T00921042  RH  038%=      5-min Rain = 0
KWA1 180030Z 06006KT 09/M04 A3009 RMK A01 T00911043  RH  039%=      5-min Rain = 0
KWA1 180031Z 06006KT 09/M04 A3009 RMK A01 T00901043  RH  039%=      5-min Rain = 0
KWA1 180032Z 06006KT 09/M04 A3009 RMK A01 T00891044  RH  039%=      5-min Rain = 0
KWA1 180033Z 06005KT 09/M04 A3009 RMK A01 T00881044  RH  039%=      5-min Rain = 0
KWA1 180034Z 06006KT 09/M04 A3009 RMK A01 T00881044  RH  039%=      5-min Rain = 0
KWA1 180035Z 06006KT 09/M05 A3009 RMK A01 T00871045  RH  039%=      5-min Rain = 0
KWA1 180036Z 06006KT 09/M05 A3009 RMK A01 T00871045  RH  039%=      5-min Rain = 0
KWA1 180037Z 06006KT 09/M05 A3009 RMK A01 T00861045  RH  039%=      5-min Rain = 0
KWA1 180038Z 06005KT 09/M05 A3009 RMK A01 T00851046  RH  039%=      5-min Rain = 0
KWA1 180039Z 06005KT 09/M05 A3009 RMK A01 T00851045  RH  039%=      5-min Rain = 0
KWA1 180040Z 06005KT 09/M05 A3009 RMK A01 T00851045  RH  040%=      5-min Rain = 0
KWA1 180041Z 05005KT 09/M05 A3009 RMK A01 T00861045  RH  039%=      5-min Rain = 0
KWA1 180042Z 05005KT 09/M04 A3009 RMK A01 T00891044  RH  039%=      5-min Rain = 0
KWA1 180043Z 05005KT 09/M04 A3009 RMK A01 T00911044  RH  038%=      5-min Rain = 0
KWA1 180044Z 05006KT 09/M04 A3009 RMK A01 T00921044  RH  038%=      5-min Rain = 0
KWA1 180045Z 05006KT 09/M04 A3009 RMK A01 T00931044  RH  038%=      5-min Rain = 0
KWA1 180046Z 05006KT 10/M04 A3009 RMK A01 T00951044  RH  037%=      5-min Rain = 0
KWA1 180047Z 06005KT 10/M04 A3009 RMK A01 T00951044  RH  037%=      5-min Rain = 0
KWA1 180048Z 06005KT 09/M05 A3009 RMK A01 T00931046  RH  037%=      5-min Rain = 0
KWA1 180049Z 06005KT 09/M05 A3009 RMK A01 T00911048  RH  037%=      5-min Rain = 0
KWA1 180050Z 06005KT 09/M05 A3009 RMK A01 T00901047  RH  038%=      5-min Rain = 0
KWA1 180051Z 06005KT 09/M05 A3009 RMK A01 T00891046  RH  038%=      5-min Rain = 0
KWA1 180052Z 06005KT 09/M05 A3009 RMK A01 T00891045  RH  038%=      5-min Rain = 0
KWA1 180053Z 06006KT 09/M05 A3009 RMK A01 T00891045  RH  038%=      5-min Rain = 0
KWA1 180054Z 06006KT 09/M05 A3009 RMK A01 T00891045  RH  038%=      5-min Rain = 0
KWA1 180055Z 06006KT 09/M05 A3009 RMK A01 T00881046  RH  038%=      5-min Rain = 0
KWA1 180056Z 06006KT 09/M05 A3009 RMK A01 T00861048  RH  039%=      5-min Rain = 0
KWA1 180057Z 06006KT 08/M05 A3009 RMK A01 T00841047  RH  039%=      5-min Rain = 0
KWA1 180058Z 06006KT 09/M05 A3009 RMK A01 T00851046  RH  039%=      5-min Rain = 0
KWA1 180059Z 06006KT 09/M05 A3009 RMK A01 T00861046  RH  039%=      5-min Rain = 0
KWA1 180100Z 06006KT 09/M05 A3009 RMK A01 T00861045  RH  039%=      5-min Rain = 0
KWA1 180101Z 06006KT 09/M05 A3009 RMK A01 T00871046  RH  039%=      5-min Rain = 0
KWA1 180102Z 06006KT 09/M05 A3009 RMK A01 T00871046  RH  039%=      5-min Rain = 0
KWA1 180103Z 07006KT 09/M05 A3009 RMK A01 T00871046  RH  039%=      5-min Rain = 0
KWA1 180104Z 07006KT 09/M05 A3009 RMK A01 T00871046  RH  039%=      5-min Rain = 0
KWA1 180105Z 07006KT 09/M05 A3009 RMK A01 T00861046  RH  039%=      5-min Rain = 0
KWA1 180106Z 07006KT 09/M05 A3009 RMK A01 T00851046  RH  039%=      5-min Rain = 0
KWA1 180107Z 07006KT 08/M05 A3009 RMK A01 T00841047  RH  039%=      5-min Rain = 0
KWA1 180108Z 07006KT 08/M05 A301 RMK A01 T00831047  RH  039%=      5-min Rain = 0
KWA1 180109Z 07006KT 08/M05 A301 RMK A01 T00811047  RH  040%=      5-min Rain = 0
KWA1 180110Z 07006KT 08/M05 A301 RMK A01 T00791047  RH  040%=      5-min Rain = 0
KWA1 180111Z 07006KT 08/M05 A301 RMK A01 T00781048  RH  041%=      5-min Rain = 0
KWA1 180112Z 07007KT 08/M05 A301 RMK A01 T00771048  RH  041%=      5-min Rain = 0
KWA1 180113Z 07007KT 08/M05 A301 RMK A01 T00771048  RH  041%=      5-min Rain = 0
KWA1 180114Z 07006KT 08/M05 A301 RMK A01 T00761048  RH  041%=      5-min Rain = 0
KWA1 180115Z 07006KT 08/M05 A301 RMK A01 T00771048  RH  041%=      5-min Rain = 0
KWA1 180116Z 06006KT 08/M05 A301 RMK A01 T00771048  RH  041%=      5-min Rain = 0
KWA1 180117Z 06006KT 08/M05 A301 RMK A01 T00781049  RH  040%=      5-min Rain = 0
KWA1 180118Z 07006KT 08/M05 A301 RMK A01 T00781049  RH  040%=      5-min Rain = 0
KWA1 180119Z 07006KT 08/M05 A301 RMK A01 T00791048  RH  040%=      5-min Rain = 0
KWA1 180120Z 07006KT 08/M05 A301 RMK A01 T00791049  RH  040%=      5-min Rain = 0
KWA1 180121Z 07006KT 08/M05 A301 RMK A01 T00791049  RH  040%=      5-min Rain = 0
KWA1 180122Z 07006KT 08/M05 A301 RMK A01 T00781049  RH  040%=      5-min Rain = 0
KWA1 180123Z 07006KT 08/M05 A301 RMK A01 T00781049  RH  040%=      5-min Rain = 0
KWA1 180124Z 07006KT 08/M05 A301 RMK A01 T00791049  RH  040%=      5-min Rain = 0
KWA1 180125Z 08006KT 08/M05 A301 RMK A01 T00791049  RH  040%=      5-min Rain = 0
KWA1 180126Z 07006KT 08/M05 A301 RMK A01 T00791049  RH  040%=      5-min Rain = 0
KWA1 180127Z 07006KT 08/M05 A301 RMK A01 T00781049  RH  040%=      5-min Rain = 0
KWA1 180128Z 08006KT 08/M05 A301 RMK A01 T00791049  RH  040%=      5-min Rain = 0
KWA1 180129Z 08006KT 08/M05 A301 RMK A01 T00791049  RH  040%=      5-min Rain = 0
KWA1 180130Z 08006KT 08/M05 A301 RMK A01 T00791049  RH  040%=      5-min Rain = 0
KWA1 180131Z 08006KT 08/M05 A301 RMK A01 T00791049  RH  040%=      5-min Rain = 0
KWA1 180132Z 08006KT 08/M05 A301 RMK A01 T00781050  RH  040%=      5-min Rain = 0
KWA1 180133Z 08006KT 08/M05 A301 RMK A01 T00781049  RH  040%=      5-min Rain = 0
KWA1 180134Z 08006KT 08/M05 A301 RMK A01 T00781048  RH  040%=      5-min Rain = 0
KWA1 180135Z 08006KT 08/M05 A301 RMK A01 T00781048  RH  040%=      5-min Rain = 0
KWA1 180136Z 08006KT 08/M05 A301 RMK A01 T00781048  RH  041%=      5-min Rain = 0
KWA1 180137Z 08007KT 08/M05 A301 RMK A01 T00781048  RH  041%=      5-min Rain = 0
KWA1 180138Z 08007KT 08/M05 A301 RMK A01 T00781048  RH  041%=      5-min Rain = 0
KWA1 180139Z 08007KT 08/M05 A301 RMK A01 T00781047  RH  041%=      5-min Rain = 0
KWA1 180140Z 08007KT 08/M05 A301 RMK A01 T00791047  RH  040%=      5-min Rain = 0
KWA1 180141Z 09007KT 08/M05 A301 RMK A01 T00791047  RH  040%=      5-min Rain = 0
KWA1 180142Z 09006KT 08/M05 A301 RMK A01 T00791047  RH  041%=      5-min Rain = 0
KWA1 180143Z 09006KT 08/M05 A301 RMK A01 T00791046  RH  041%=      5-min Rain = 0
KWA1 180144Z 09006KT 08/M05 A301 RMK A01 T00781047  RH  041%=      5-min Rain = 0
KWA1 180145Z 09006KT 08/M05 A301 RMK A01 T00771047  RH  041%=      5-min Rain = 0
KWA1 180146Z 09006KT 08/M05 A301 RMK A01 T00761046  RH  041%=      5-min Rain = 0
KWA1 180147Z 09006KT 08/M05 A301 RMK A01 T00761046  RH  042%=      5-min Rain = 0
KWA1 180148Z 09006KT 08/M05 A301 RMK A01 T00761045  RH  042%=      5-min Rain = 0
KWA1 180149Z 09006KT 08/M05 A301 RMK A01 T00751045  RH  042%=      5-min Rain = 0
KWA1 180150Z 09006KT 08/M04 A301 RMK A01 T00761044  RH  042%=      5-min Rain = 0
KWA1 180151Z 09006KT 08/M04 A301 RMK A01 T00761044  RH  042%=      5-min Rain = 0
KWA1 180152Z 10006KT 08/M04 A301 RMK A01 T00761043  RH  042%=      5-min Rain = 0
KWA1 180153Z 10005KT 08/M04 A301 RMK A01 T00771043  RH  042%=      5-min Rain = 0
KWA1 180154Z 10005KT 08/M04 A301 RMK A01 T00771043  RH  042%=      5-min Rain = 0
KWA1 180155Z 10005KT 08/M04 A301 RMK A01 T00771043  RH  042%=      5-min Rain = 0
KWA1 180156Z 10005KT 08/M04 A301 RMK A01 T00781043  RH  042%=      5-min Rain = 0
KWA1 180157Z 10005KT 08/M04 A301 RMK A01 T00781043  RH  042%=      5-min Rain = 0
KWA1 180158Z 11005KT 08/M04 A301 RMK A01 T00791043  RH  042%=      5-min Rain = 0
KWA1 180159Z 11005KT 08/M04 A3011 RMK A01 T00781043  RH  042%=      5-min Rain = 0
KWA1 180200Z 11006KT 08/M04 A3011 RMK A01 T00771044  RH  042%=      5-min Rain = 0
KWA1 180201Z 11005KT 08/M04 A3011 RMK A01 T00761044  RH  042%=      5-min Rain = 0
KWA1 180202Z 11005KT 08/M04 A3011 RMK A01 T00761044  RH  042%=      5-min Rain = 0
KWA1 180203Z 11005KT 08/M04 A3011 RMK A01 T00761044  RH  042%=      5-min Rain = 0
KWA1 180204Z 11005KT 08/M04 A3011 RMK A01 T00771044  RH  042%=      5-min Rain = 0
KWA1 180205Z 11005KT 08/M04 A3011 RMK A01 T00761044  RH  042%=      5-min Rain = 0
KWA1 180206Z 11005KT 08/M04 A3011 RMK A01 T00751043  RH  043%=      5-min Rain = 0
KWA1 180207Z 11005KT 08/M04 A3011 RMK A01 T00751043  RH  043%=      5-min Rain = 0
KWA1 180208Z 11006KT 07/M04 A301 RMK A01 T00731044  RH  043%=      5-min Rain = 0
KWA1 180209Z 11006KT 07/M05 A301 RMK A01 T00701045  RH  044%=      5-min Rain = 0
KWA1 180210Z 11006KT 07/M05 A301 RMK A01 T00691046  RH  044%=      5-min Rain = 0
KWA1 180211Z 11006KT 07/M05 A301 RMK A01 T00681045  RH  044%=      5-min Rain = 0
KWA1 180212Z 12006KT 07/M04 A3011 RMK A01 T00691044  RH  044%=      5-min Rain = 0
KWA1 180213Z 12006KT 07/M04 A3011 RMK A01 T00691044  RH  044%=      5-min Rain = 0
KWA1 180214Z 12006KT 07/M05 A3011 RMK A01 T00691045  RH  044%=      5-min Rain = 0
KWA1 180215Z 12005KT 07/M05 A3011 RMK A01 T00671046  RH  045%=      5-min Rain = 0
KWA1 180216Z 12006KT 06/M05 A3011 RMK A01 T00641046  RH  045%=      5-min Rain = 0
KWA1 180217Z 12006KT 06/M05 A3011 RMK A01 T00611047  RH  046%=      5-min Rain = 0
KWA1 180218Z 12006KT 06/M05 A3011 RMK A01 T00591049  RH  046%=      5-min Rain = 0
KWA1 180219Z 12006KT 06/M05 A3011 RMK A01 T00571048  RH  047%=      5-min Rain = 0
KWA1 180220Z 12006KT 06/M05 A3011 RMK A01 T00561047  RH  047%=      5-min Rain = 0
KWA1 180221Z 12006KT 06/M05 A3011 RMK A01 T00551048  RH  047%=      5-min Rain = 0
KWA1 180222Z 12006KT 06/M05 A3011 RMK A01 T00551048  RH  047%=      5-min Rain = 0
KWA1 180223Z 12006KT 05/M05 A3011 RMK A01 T00541049  RH  047%=      5-min Rain = 0
KWA1 180224Z 12006KT 05/M05 A3011 RMK A01 T00521050  RH  048%=      5-min Rain = 0
KWA1 180225Z 12006KT 05/M05 A3011 RMK A01 T00521049  RH  048%=      5-min Rain = 0
KWA1 180226Z 12006KT 05/M05 A3011 RMK A01 T00521049  RH  048%=      5-min Rain = 0
KWA1 180227Z 13006KT 05/M05 A3011 RMK A01 T00521049  RH  048%=      5-min Rain = 0
KWA1 180228Z 13006KT 05/M05 A3011 RMK A01 T00501048  RH  049%=      5-min Rain = 0
KWA1 180229Z 12006KT 05/M05 A3011 RMK A01 T00491048  RH  049%=      5-min Rain = 0
KWA1 180230Z 12006KT 05/M05 A3011 RMK A01 T00491047  RH  050%=      5-min Rain = 0
KWA1 180231Z 12006KT 05/M05 A3011 RMK A01 T00491047  RH  050%=      5-min Rain = 0
KWA1 180232Z 12005KT 05/M05 A3011 RMK A01 T00491047  RH  050%=      5-min Rain = 0
KWA1 180233Z 12005KT 05/M05 A3011 RMK A01 T00491047  RH  050%=      5-min Rain = 0
KWA1 180234Z 13005KT 05/M05 A3011 RMK A01 T00491047  RH  050%=      5-min Rain = 0
KWA1 180235Z 13005KT 05/M05 A3011 RMK A01 T00481048  RH  050%=      5-min Rain = 0
KWA1 180236Z 13006KT 05/M05 A3011 RMK A01 T00481048  RH  050%=      5-min Rain = 0
KWA1 180237Z 12006KT 05/M05 A3011 RMK A01 T00471048  RH  050%=      5-min Rain = 0
KWA1 180238Z 12006KT 05/M05 A3011 RMK A01 T00471048  RH  050%=      5-min Rain = 0
KWA1 180239Z 12006KT 05/M05 A3011 RMK A01 T00461048  RH  051%=      5-min Rain = 0
KWA1 180240Z 13006KT 05/M05 A3011 RMK A01 T00461047  RH  051%=      5-min Rain = 0
KWA1 180241Z 13006KT 05/M05 A3011 RMK A01 T00461047  RH  051%=      5-min Rain = 0
KWA1 180242Z 13006KT 05/M05 A3011 RMK A01 T00451047  RH  051%=      5-min Rain = 0
KWA1 180243Z 13005KT 04/M05 A3011 RMK A01 T00441048  RH  051%=      5-min Rain = 0
KWA1 180244Z 13005KT 04/M05 A3011 RMK A01 T00431048  RH  052%=      5-min Rain = 0
KWA1 180245Z 13005KT 04/M05 A3011 RMK A01 T00431047  RH  052%=      5-min Rain = 0
KWA1 180246Z 13005KT 04/M05 A3011 RMK A01 T00431047  RH  052%=      5-min Rain = 0
KWA1 180247Z 13005KT 04/M05 A3011 RMK A01 T00441046  RH  052%=      5-min Rain = 0
KWA1 180248Z 13005KT 04/M05 A3011 RMK A01 T00441046  RH  052%=      5-min Rain = 0
KWA1 180249Z 13005KT 04/M05 A3011 RMK A01 T00431047  RH  052%=      5-min Rain = 0
KWA1 180250Z 14005KT 04/M05 A3011 RMK A01 T00421047  RH  052%=      5-min Rain = 0
KWA1 180251Z 14005KT 04/M05 A3011 RMK A01 T00411048  RH  052%=      5-min Rain = 0
KWA1 180252Z 14006KT 04/M05 A3011 RMK A01 T00401048  RH  053%=      5-min Rain = 0
KWA1 180253Z 14005KT 04/M05 A3011 RMK A01 T00401047  RH  053%=      5-min Rain = 0
KWA1 180254Z 14005KT 04/M05 A3011 RMK A01 T00411046  RH  053%=      5-min Rain = 0
KWA1 180255Z 14006KT 04/M05 A3011 RMK A01 T00411047  RH  053%=      5-min Rain = 0
KWA1 180256Z 14006KT 04/M05 A3011 RMK A01 T00411046  RH  053%=      5-min Rain = 0
KWA1 180257Z 13006KT 04/M05 A3011 RMK A01 T00401047  RH  053%=      5-min Rain = 0
KWA1 180258Z 13007KT 04/M05 A3011 RMK A01 T00401047  RH  053%=      5-min Rain = 0
KWA1 180259Z 13007KT 04/M05 A3011 RMK A01 T00401046  RH  053%=      5-min Rain = 0
KWA1 180300Z 14006KT 04/M05 A3011 RMK A01 T00401046  RH  053%=      5-min Rain = 0
KWA1 180301Z 14007KT 04/M05 A3011 RMK A01 T00411045  RH  053%=      5-min Rain = 0
KWA1 180302Z 14006KT 04/M05 A3011 RMK A01 T00421045  RH  053%=      5-min Rain = 0
KWA1 180303Z 14007KT 04/M05 A3011 RMK A01 T00431045  RH  053%=      5-min Rain = 0
KWA1 180304Z 14007KT 04/M05 A3011 RMK A01 T00421045  RH  053%=      5-min Rain = 0
KWA1 180305Z 14006KT 04/M05 A3011 RMK A01 T00411046  RH  053%=      5-min Rain = 0
KWA1 180306Z 15006KT 04/M05 A3011 RMK A01 T00401046  RH  053%=      5-min Rain = 0
KWA1 180307Z 15007KT 04/M05 A3011 RMK A01 T00391046  RH  054%=      5-min Rain = 0
KWA1 180308Z 15007KT 04/M05 A3011 RMK A01 T00371047  RH  054%=      5-min Rain = 0
KWA1 180309Z 15007KT 04/M05 A3011 RMK A01 T00351047  RH  055%=      5-min Rain = 0
KWA1 180310Z 15007KT 03/M05 A3011 RMK A01 T00341047  RH  055%=      5-min Rain = 0
KWA1 180311Z 15007KT 03/M05 A3011 RMK A01 T00331047  RH  056%=      5-min Rain = 0
KWA1 180312Z 15007KT 03/M05 A3011 RMK A01 T00331047  RH  056%=      5-min Rain = 0
KWA1 180313Z 16007KT 03/M05 A3011 RMK A01 T00331046  RH  056%=      5-min Rain = 0
KWA1 180314Z 16006KT 03/M05 A3011 RMK A01 T00331046  RH  056%=      5-min Rain = 0
KWA1 180315Z 16006KT 03/M05 A3011 RMK A01 T00321048  RH  056%=      5-min Rain = 0
KWA1 180316Z 16006KT 03/M05 A3011 RMK A01 T00311049  RH  055%=      5-min Rain = 0
KWA1 180317Z 16006KT 03/M05 A3011 RMK A01 T00301050  RH  056%=      5-min Rain = 0
KWA1 180318Z 16006KT 03/M05 A3011 RMK A01 T00301049  RH  056%=      5-min Rain = 0
KWA1 180319Z 16006KT 03/M05 A3011 RMK A01 T00301048  RH  057%=      5-min Rain = 0
KWA1 180320Z 15006KT 03/M05 A3011 RMK A01 T00301048  RH  057%=      5-min Rain = 0
KWA1 180321Z 15006KT 03/M05 A3011 RMK A01 T00301047  RH  057%=      5-min Rain = 0
KWA1 180322Z 15006KT 03/M05 A3011 RMK A01 T00311047  RH  057%=      5-min Rain = 0
KWA1 180323Z 15006KT 03/M05 A3011 RMK A01 T00321047  RH  056%=      5-min Rain = 0
KWA1 180324Z 15006KT 03/M05 A3011 RMK A01 T00311047  RH  056%=      5-min Rain = 0
KWA1 180325Z 16006KT 03/M05 A3011 RMK A01 T00311047  RH  057%=      5-min Rain = 0
KWA1 180326Z 16006KT 03/M05 A3011 RMK A01 T00311047  RH  057%=      5-min Rain = 0
KWA1 180327Z 16006KT 03/M05 A3011 RMK A01 T00311047  RH  057%=      5-min Rain = 0
KWA1 180328Z 16007KT 03/M05 A3011 RMK A01 T00311047  RH  057%=      5-min Rain = 0
KWA1 180329Z 16007KT 03/M05 A3011 RMK A01 T00311046  RH  057%=      5-min Rain = 0
KWA1 180330Z 15007KT 03/M05 A3011 RMK A01 T00311046  RH  057%=      5-min Rain = 0
KWA1 180331Z 16007KT 03/M05 A3011 RMK A01 T00311045  RH  057%=      5-min Rain = 0
KWA1 180332Z 15007KT 03/M05 A3011 RMK A01 T00311045  RH  057%=      5-min Rain = 0
KWA1 180333Z 16008KT 03/M04 A3011 RMK A01 T00311044  RH  058%=      5-min Rain = 0
KWA1 180334Z 16007KT 03/M04 A3011 RMK A01 T00311044  RH  058%=      5-min Rain = 0
KWA1 180335Z 16007KT 03/M04 A3011 RMK A01 T00311043  RH  058%=      5-min Rain = 0
KWA1 180336Z 16007KT 03/M04 A3011 RMK A01 T00321043  RH  058%=      5-min Rain = 0
KWA1 180337Z 16007KT 03/M04 A3011 RMK A01 T00321043  RH  058%=      5-min Rain = 0
KWA1 180338Z 16007KT 03/M04 A3011 RMK A01 T00321043  RH  058%=      5-min Rain = 0
KWA1 180339Z 16007KT 03/M04 A3011 RMK A01 T00321043  RH  058%=      5-min Rain = 0
KWA1 180340Z 16007KT 03/M04 A301 RMK A01 T00321042  RH  058%=      5-min Rain = 0
KWA1 180341Z 16007KT 03/M04 A301 RMK A01 T00311043  RH  058%=      5-min Rain = 0
KWA1 180342Z 16007KT 03/M04 A301 RMK A01 T00311043  RH  059%=      5-min Rain = 0
KWA1 180343Z 16007KT 03/M04 A301 RMK A01 T00301042  RH  059%=      5-min Rain = 0
KWA1 180344Z 16007KT 03/M04 A301 RMK A01 T00301041  RH  059%=      5-min Rain = 0
KWA1 180345Z 16007KT 03/M04 A301 RMK A01 T00291042  RH  060%=      5-min Rain = 0
KWA1 180346Z 16008KT 03/M04 A301 RMK A01 T00291042  RH  060%=      5-min Rain = 0
KWA1 180347Z 16007KT 03/M04 A301 RMK A01 T00281042  RH  060%=      5-min Rain = 0
KWA1 180348Z 16007KT 03/M04 A3011 RMK A01 T00281041  RH  060%=      5-min Rain = 0
KWA1 180349Z 16006KT 03/M04 A3011 RMK A01 T00281041  RH  061%=      5-min Rain = 0
KWA1 180350Z 16006KT 03/M04 A3011 RMK A01 T00281041  RH  061%=      5-min Rain = 0
KWA1 180351Z 16006KT 03/M04 A3011 RMK A01 T00271041  RH  061%=      5-min Rain = 0
KWA1 180352Z 16006KT 03/M04 A3011 RMK A01 T00281041  RH  061%=      5-min Rain = 0
KWA1 180353Z 16006KT 03/M04 A3011 RMK A01 T00271041  RH  061%=      5-min Rain = 0
KWA1 180354Z 16007KT 03/M04 A3011 RMK A01 T00271041  RH  061%=      5-min Rain = 0
KWA1 180355Z 16006KT 03/M04 A3011 RMK A01 T00261041  RH  061%=      5-min Rain = 0
KWA1 180356Z 16006KT 03/M04 A3011 RMK A01 T00261041  RH  061%=      5-min Rain = 0
KWA1 180357Z 17006KT 03/M04 A3011 RMK A01 T00261042  RH  061%=      5-min Rain = 0
KWA1 180358Z 17006KT 03/M04 A301 RMK A01 T00261042  RH  061%=      5-min Rain = 0
KWA1 180359Z 17007KT 03/M04 A301 RMK A01 T00261041  RH  061%=      5-min Rain = 0
KWA1 180400Z 17007KT 03/M04 A301 RMK A01 T00261041  RH  061%=      5-min Rain = 0
KWA1 180401Z 17008KT 03/M04 A301 RMK A01 T00271040  RH  062%=      5-min Rain = 0
KWA1 180402Z 17008KT 03/M04 A301 RMK A01 T00271039  RH  062%=      5-min Rain = 0
KWA1 180403Z 17008KT 03/M04 A301 RMK A01 T00281039  RH  062%=      5-min Rain = 0
KWA1 180404Z 17008KT 03/M04 A301 RMK A01 T00281039  RH  061%=      5-min Rain = 0
KWA1 180405Z 17008KT 03/M04 A301 RMK A01 T00281039  RH  061%=      5-min Rain = 0
KWA1 180406Z 17008KT 03/M04 A301 RMK A01 T00281039  RH  061%=      5-min Rain = 0
KWA1 180407Z 17008KT 03/M04 A301 RMK A01 T00291039  RH  061%=      5-min Rain = 0
KWA1 180408Z 17008KT 03/M04 A301 RMK A01 T00291038  RH  061%=      5-min Rain = 0
KWA1 180409Z 16008KT 03/M04 A301 RMK A01 T00301039  RH  060%=      5-min Rain = 0
KWA1 180410Z 17009KT 03/M04 A301 RMK A01 T00301039  RH  060%=      5-min Rain = 0
KWA1 180411Z 16009KT 03/M04 A301 RMK A01 T00301040  RH  060%=      5-min Rain = 0
KWA1 180412Z 16008KT 03/M04 A301 RMK A01 T00291039  RH  061%=      5-min Rain = 0
KWA1 180413Z 16008KT 03/M04 A301 RMK A01 T00301039  RH  061%=      5-min Rain = 0
KWA1 180414Z 16008KT 03/M04 A301 RMK A01 T00291039  RH  061%=      5-min Rain = 0
KWA1 180415Z 17008KT 03/M04 A301 RMK A01 T00291039  RH  061%=      5-min Rain = 0
KWA1 180416Z 17008KT 03/M04 A301 RMK A01 T00301039  RH  061%=      5-min Rain = 0
KWA1 180417Z 17008KT 03/M04 A301 RMK A01 T00301039  RH  061%=      5-min Rain = 0
KWA1 180418Z 17009KT 03/M04 A301 RMK A01 T00311038  RH  061%=      5-min Rain = 0
KWA1 180419Z 17009KT 03/M04 A301 RMK A01 T00311038  RH  060%=      5-min Rain = 0
KWA1 180420Z 17009KT 03/M04 A301 RMK A01 T00321038  RH  060%=      5-min Rain = 0
KWA1 180421Z 17009KT 03/M04 A301 RMK A01 T00321038  RH  060%=      5-min Rain = 0
KWA1 180422Z 16009KT 03/M04 A301 RMK A01 T00311038  RH  060%=      5-min Rain = 0
KWA1 180423Z 16009KT 03/M04 A301 RMK A01 T00311037  RH  061%=      5-min Rain = 0
KWA1 180424Z 16009KT 03/M04 A301 RMK A01 T00311036  RH  061%=      5-min Rain = 0
KWA1 180425Z 16008KT 03/M04 A301 RMK A01 T00321036  RH  061%=      5-min Rain = 0
KWA1 180426Z 16009KT 03/M04 A301 RMK A01 T00331036  RH  061%=      5-min Rain = 0
KWA1 180427Z 16010KT 04/M04 A301 RMK A01 T00351035  RH  060%=      5-min Rain = 0
KWA1 180428Z 16009KT 04/M03 A301 RMK A01 T00361034  RH  060%=      5-min Rain = 0
KWA1 180429Z 16009KT 04/M04 A301 RMK A01 T00361035  RH  060%=      5-min Rain = 0
KWA1 180430Z 16010KT 04/M04 A301 RMK A01 T00371035  RH  059%=      5-min Rain = 0
KWA1 180431Z 16011KT 04/M04 A301 RMK A01 T00381035  RH  059%=      5-min Rain = 0
KWA1 180432Z 16011KT 04/M03 A3009 RMK A01 T00391034  RH  059%=      5-min Rain = 0
KWA1 180433Z 16011KT 04/M03 A3009 RMK A01 T00401034  RH  058%=      5-min Rain = 0
KWA1 180434Z 16011KT 04/M04 A3009 RMK A01 T00391035  RH  058%=      5-min Rain = 0
KWA1 180435Z 15010KT 04/M04 A3009 RMK A01 T00391035  RH  058%=      5-min Rain = 0
KWA1 180436Z 15010KT 04/M04 A3009 RMK A01 T00381035  RH  059%=      5-min Rain = 0
KWA1 180437Z 15011KT 04/M04 A3009 RMK A01 T00361036  RH  059%=      5-min Rain = 0
KWA1 180438Z 15010KT 04/M04 A3009 RMK A01 T00351036  RH  060%=      5-min Rain = 0
KWA1 180439Z 15010KT 04/M04 A3009 RMK A01 T00351036  RH  060%=      5-min Rain = 0
KWA1 180440Z 15011KT 03/M04 A3009 RMK A01 T00341036  RH  060%=      5-min Rain = 0
KWA1 180441Z 15010KT 03/M04 A3009 RMK A01 T00331036  RH  061%=      5-min Rain = 0
KWA1 180442Z 15010KT 03/M04 A3009 RMK A01 T00311037  RH  061%=      5-min Rain = 0
KWA1 180443Z 15010KT 03/M04 A3009 RMK A01 T00311037  RH  061%=      5-min Rain = 0
KWA1 180444Z 15010KT 03/M04 A3009 RMK A01 T00301037  RH  061%=      5-min Rain = 0
KWA1 180445Z 15009KT 03/M04 A3009 RMK A01 T00291037  RH  062%=      5-min Rain = 0
KWA1 180446Z 15009KT 03/M04 A3009 RMK A01 T00281037  RH  062%=      5-min Rain = 0
KWA1 180447Z 15009KT 03/M04 A3009 RMK A01 T00281037  RH  062%=      5-min Rain = 0
KWA1 180448Z 15009KT 03/M04 A3009 RMK A01 T00281037  RH  062%=      5-min Rain = 0
KWA1 180449Z 15009KT 03/M04 A3009 RMK A01 T00281037  RH  062%=      5-min Rain = 0
KWA1 180450Z 16009KT 03/M04 A3009 RMK A01 T00271038  RH  062%=      5-min Rain = 0
KWA1 180451Z 16010KT 03/M04 A3009 RMK A01 T00271038  RH  062%=      5-min Rain = 0
KWA1 180452Z 16010KT 03/M04 A3009 RMK A01 T00271038  RH  063%=      5-min Rain = 0
KWA1 180453Z 16011KT 03/M04 A3009 RMK A01 T00281037  RH  062%=      5-min Rain = 0
KWA1 180454Z 16011KT 03/M04 A3009 RMK A01 T00291037  RH  062%=      5-min Rain = 0
KWA1 180455Z 16010KT 03/M04 A3009 RMK A01 T00301036  RH  062%=      5-min Rain = 0
KWA1 180456Z 16010KT 03/M04 A3009 RMK A01 T00301037  RH  061%=      5-min Rain = 0
KWA1 180457Z 16010KT 03/M04 A3009 RMK A01 T00301037  RH  061%=      5-min Rain = 0
KWA1 180458Z 16010KT 03/M04 A3009 RMK A01 T00321036  RH  061%=      5-min Rain = 0
KWA1 180459Z 16010KT 03/M04 A3009 RMK A01 T00331036  RH  060%=      5-min Rain = 0
KWA1 180500Z 16009KT 03/M04 A3009 RMK A01 T00341036  RH  060%=      5-min Rain = 0
KWA1 180501Z 16009KT 03/M04 A3009 RMK A01 T00341036  RH  060%=      5-min Rain = 0
KWA1 180502Z 16009KT 03/M04 A3009 RMK A01 T00331036  RH  060%=      5-min Rain = 0
KWA1 180503Z 16009KT 03/M04 A3009 RMK A01 T00321037  RH  060%=      5-min Rain = 0
KWA1 180504Z 15008KT 03/M04 A3009 RMK A01 T00321037  RH  061%=      5-min Rain = 0
KWA1 180505Z 15009KT 03/M04 A3009 RMK A01 T00301038  RH  061%=      5-min Rain = 0
KWA1 180506Z 15009KT 03/M04 A3009 RMK A01 T00301038  RH  061%=      5-min Rain = 0
KWA1 180507Z 15009KT 03/M04 A3009 RMK A01 T00281038  RH  061%=      5-min Rain = 0
KWA1 180508Z 15009KT 03/M04 A3009 RMK A01 T00281038  RH  062%=      5-min Rain = 0
KWA1 180509Z 15008KT 03/M04 A3009 RMK A01 T00281038  RH  062%=      5-min Rain = 0
KWA1 180510Z 15008KT 03/M04 A3009 RMK A01 T00281038  RH  062%=      5-min Rain = 0
KWA1 180511Z 15008KT 03/M04 A3009 RMK A01 T00271038  RH  062%=      5-min Rain = 0
KWA1 180512Z 15008KT 03/M04 A3009 RMK A01 T00271038  RH  062%=      5-min Rain = 0
KWA1 180513Z 15008KT 03/M04 A3009 RMK A01 T00271038  RH  062%=      5-min Rain = 0
KWA1 180514Z 15008KT 03/M04 A3009 RMK A01 T00271038  RH  062%=      5-min Rain = 0
KWA1 180515Z 15008KT 03/M04 A3009 RMK A01 T00271038  RH  062%=      5-min Rain = 0
KWA1 180516Z 15009KT 03/M04 A3009 RMK A01 T00261038  RH  062%=      5-min Rain = 0
KWA1 180517Z 15009KT 03/M04 A3009 RMK A01 T00261038  RH  063%=      5-min Rain = 0
KWA1 180518Z 15009KT 03/M04 A3008 RMK A01 T00261038  RH  063%=      5-min Rain = 0
KWA1 180519Z 15009KT 03/M04 A3008 RMK A01 T00261038  RH  063%=      5-min Rain = 0
KWA1 180520Z 15009KT 03/M04 A3008 RMK A01 T00261038  RH  063%=      5-min Rain = 0
KWA1 180521Z 15009KT 03/M04 A3008 RMK A01 T00261038  RH  063%=      5-min Rain = 0
KWA1 180522Z 15010KT 03/M04 A3008 RMK A01 T00271037  RH  063%=      5-min Rain = 0
KWA1 180523Z 15010KT 03/M04 A3008 RMK A01 T00271038  RH  062%=      5-min Rain = 0
KWA1 180524Z 14009KT 03/M04 A3008 RMK A01 T00281037  RH  062%=      5-min Rain = 0
KWA1 180525Z 14009KT 03/M04 A3008 RMK A01 T00301036  RH  062%=      5-min Rain = 0
KWA1 180526Z 14009KT 03/M04 A3008 RMK A01 T00311036  RH  061%=      5-min Rain = 0
KWA1 180527Z 14009KT 03/M04 A3008 RMK A01 T00321037  RH  061%=      5-min Rain = 0
KWA1 180528Z 14009KT 03/M04 A3008 RMK A01 T00321037  RH  060%=      5-min Rain = 0
KWA1 180529Z 14009KT 03/M04 A3008 RMK A01 T00321038  RH  060%=      5-min Rain = 0
KWA1 180530Z 14010KT 03/M04 A3008 RMK A01 T00321038  RH  060%=      5-min Rain = 0
KWA1 180531Z 15010KT 03/M04 A3008 RMK A01 T00321038  RH  060%=      5-min Rain = 0
KWA1 180532Z 15009KT 03/M04 A3008 RMK A01 T00321038  RH  060%=      5-min Rain = 0
KWA1 180533Z 15010KT 03/M04 A3008 RMK A01 T00311039  RH  060%=      5-min Rain = 0
KWA1 180534Z 15010KT 03/M04 A3008 RMK A01 T00301039  RH  060%=      5-min Rain = 0
KWA1 180535Z 15010KT 03/M04 A3008 RMK A01 T00291040  RH  061%=      5-min Rain = 0
KWA1 180536Z 15010KT 03/M04 A3008 RMK A01 T00291039  RH  061%=      5-min Rain = 0
KWA1 180537Z 15010KT 03/M04 A3008 RMK A01 T00281039  RH  061%=      5-min Rain = 0
KWA1 180538Z 15010KT 03/M04 A3008 RMK A01 T00281039  RH  061%=      5-min Rain = 0
KWA1 180539Z 14009KT 03/M04 A3007 RMK A01 T00281039  RH  061%=      5-min Rain = 0
KWA1 180540Z 14009KT 03/M04 A3007 RMK A01 T00281039  RH  061%=      5-min Rain = 0
KWA1 180541Z 14009KT 03/M04 A3007 RMK A01 T00291039  RH  061%=      5-min Rain = 0
KWA1 180542Z 14009KT 03/M04 A3007 RMK A01 T00311037  RH  061%=      5-min Rain = 0
KWA1 180543Z 13008KT 04/M04 A3007 RMK A01 T00361035  RH  060%=      5-min Rain = 0
KWA1 180544Z 14008KT 04/M03 A3007 RMK A01 T00421033  RH  058%=      5-min Rain = 0
KWA1 180545Z 14009KT 04/M04 A3007 RMK A01 T00431035  RH  057%=      5-min Rain = 0
KWA1 180546Z 15008KT 04/M04 A3007 RMK A01 T00421037  RH  057%=      5-min Rain = 0
KWA1 180547Z 15010KT 04/M04 A3007 RMK A01 T00381038  RH  057%=      5-min Rain = 0
KWA1 180548Z 16010KT 04/M04 A3007 RMK A01 T00351040  RH  058%=      5-min Rain = 0
KWA1 180549Z 16010KT 03/M04 A3007 RMK A01 T00321041  RH  059%=      5-min Rain = 0
KWA1 180550Z 16010KT 03/M04 A3007 RMK A01 T00291040  RH  060%=      5-min Rain = 0
KWA1 180551Z 16010KT 03/M04 A3007 RMK A01 T00281040  RH  061%=      5-min Rain = 0
KWA1 180552Z 16010KT 03/M04 A3007 RMK A01 T00281039  RH  061%=      5-min Rain = 0
KWA1 180553Z 16010KT 03/M04 A3007 RMK A01 T00281039  RH  061%=      5-min Rain = 0
KWA1 180554Z 16009KT 03/M04 A3007 RMK A01 T00281039  RH  061%=      5-min Rain = 0
KWA1 180555Z 17008KT 03/M04 A3007 RMK A01 T00281039  RH  061%=      5-min Rain = 0
KWA1 180556Z 16008KT 03/M04 A3007 RMK A01 T00281038  RH  062%=      5-min Rain = 0
KWA1 180557Z 16008KT 03/M04 A3007 RMK A01 T00271039  RH  062%=      5-min Rain = 0
KWA1 180558Z 16008KT 03/M04 A3007 RMK A01 T00281038  RH  062%=      5-min Rain = 0
KWA1 180559Z 16008KT 03/M04 A3007 RMK A01 T00281038  RH  062%=      5-min Rain = 0

Page generated in 0.064 seconds.